Observation data for Earth on 12/15/2019      Previous  Date       Current Mesonet Observations  Soil Data  Daily Summary Page  Observations in Plain Language
KEA1 150600Z 06002KT 01/M02 A2972 RMK A01 T00071018  RH  083%=      5-min Rain = 0
KEA1 150601Z 08002KT 01/M02 A2972 RMK A01 T00061018  RH  084%=      5-min Rain = 0
KEA1 150602Z 07002KT 01/M02 A2972 RMK A01 T00061018  RH  084%=      5-min Rain = 0
KEA1 150603Z 06002KT 01/M02 A2972 RMK A01 T00061017  RH  085%=      5-min Rain = 0
KEA1 150604Z 07002KT 01/M02 A2972 RMK A01 T00061016  RH  086%=      5-min Rain = 0
KEA1 150605Z 09002KT 01/M01 A2972 RMK A01 T00071013  RH  087%=      5-min Rain = 0
KEA1 150606Z 09002KT 01/M01 A2972 RMK A01 T00091010  RH  087%=      5-min Rain = 0
KEA1 150607Z 09002KT 01/M01 A2972 RMK A01 T00111009  RH  087%=      5-min Rain = 0
KEA1 150608Z 07002KT 01/M01 A2972 RMK A01 T00121009  RH  086%=      5-min Rain = 0
KEA1 150609Z 07002KT 01/M01 A2972 RMK A01 T00121011  RH  085%=      5-min Rain = 0
KEA1 150610Z 07002KT 01/M01 A2972 RMK A01 T00121011  RH  085%=      5-min Rain = 0
KEA1 150611Z 06002KT 01/M01 A2972 RMK A01 T00121011  RH  085%=      5-min Rain = 0
KEA1 150612Z 06002KT 01/M01 A2972 RMK A01 T00121009  RH  085%=      5-min Rain = 0
KEA1 150613Z 06002KT 01/M01 A2972 RMK A01 T00141006  RH  086%=      5-min Rain = 0
KEA1 150614Z 06002KT 02/M01 A2972 RMK A01 T00161005  RH  086%=      5-min Rain = 0
KEA1 150615Z 04002KT 02/M01 A2972 RMK A01 T00161007  RH  085%=      5-min Rain = 0
KEA1 150616Z 02002KT 02/M01 A2972 RMK A01 T00151010  RH  083%=      5-min Rain = 0
KEA1 150617Z 01001KT 01/M01 A2972 RMK A01 T00131013  RH  083%=      5-min Rain = 0
KEA1 150618Z 01002KT 01/M01 A2972 RMK A01 T00111014  RH  084%=      5-min Rain = 0
KEA1 150619Z 35002KT 01/M01 A2972 RMK A01 T00101014  RH  084%=      5-min Rain = 0
KEA1 150620Z 01001KT 01/M01 A2972 RMK A01 T00091013  RH  085%=      5-min Rain = 0
KEA1 150621Z 03001KT 01/M01 A2972 RMK A01 T00081014  RH  085%=      5-min Rain = 0
KEA1 150622Z 06002KT 01/M01 A2972 RMK A01 T00101010  RH  087%=      5-min Rain = 0
KEA1 150623Z 07002KT 01/M01 A2972 RMK A01 T00111007  RH  088%=      5-min Rain = 0
KEA1 150624Z 07002KT 01/M01 A2972 RMK A01 T00121006  RH  088%=      5-min Rain = 0
KEA1 150625Z 07003KT 01/M01 A2972 RMK A01 T00131007  RH  086%=      5-min Rain = 0
KEA1 150626Z 07003KT 01/M01 A2972 RMK A01 T00111013  RH  084%=      5-min Rain = 0
KEA1 150627Z 07003KT 01/M01 A2972 RMK A01 T00101013  RH  085%=      5-min Rain = 0
KEA1 150628Z 07003KT 01/M01 A2972 RMK A01 T00091013  RH  085%=      5-min Rain = 0
KEA1 150629Z 06002KT 01/M01 A2972 RMK A01 T00081013  RH  085%=      5-min Rain = 0
KEA1 150630Z 06002KT 01/M01 A2972 RMK A01 T00071014  RH  086%=      5-min Rain = 0
KEA1 150631Z 06002KT 01/M01 A2972 RMK A01 T00071014  RH  086%=      5-min Rain = 0
KEA1 150632Z 08002KT 01/M02 A2972 RMK A01 T00061015  RH  086%=      5-min Rain = 0
KEA1 150633Z 09002KT 01/M01 A2972 RMK A01 T00061013  RH  087%=      5-min Rain = 0
KEA1 150634Z 09002KT 01/M01 A2972 RMK A01 T00061012  RH  088%=      5-min Rain = 0
KEA1 150635Z 10003KT 01/M01 A2972 RMK A01 T00071010  RH  088%=      5-min Rain = 0
KEA1 150636Z 11004KT 01/M01 A2971 RMK A01 T00101006  RH  089%=      5-min Rain = 0
KEA1 150637Z 12004KT 01/M00 A2971 RMK A01 T00131002  RH  090%=      5-min Rain = 0
KEA1 150638Z 11004KT 02/00 A2971 RMK A01 T00170001  RH  089%=      5-min Rain = 0
KEA1 150639Z 11004KT 02/M00 A2971 RMK A01 T00171004  RH  086%=      5-min Rain = 0
KEA1 150640Z 11003KT 02/M00 A2971 RMK A01 T00171004  RH  086%=      5-min Rain = 0
KEA1 150641Z 11003KT 02/M01 A2971 RMK A01 T00171006  RH  085%=      5-min Rain = 0
KEA1 150642Z 10003KT 02/M01 A2971 RMK A01 T00161005  RH  086%=      5-min Rain = 0
KEA1 150643Z 10003KT 02/M01 A2971 RMK A01 T00161006  RH  085%=      5-min Rain = 0
KEA1 150644Z 10002KT 02/M01 A2971 RMK A01 T00151008  RH  085%=      5-min Rain = 0
KEA1 150645Z 10002KT 01/M01 A2971 RMK A01 T00141008  RH  085%=      5-min Rain = 0
KEA1 150646Z 10002KT 01/M01 A2971 RMK A01 T00141008  RH  085%=      5-min Rain = 0
KEA1 150647Z 10003KT 01/M01 A2971 RMK A01 T00131009  RH  085%=      5-min Rain = 0
KEA1 150648Z 10003KT 01/M01 A2971 RMK A01 T00121011  RH  085%=      5-min Rain = 0
KEA1 150649Z 10002KT 01/M01 A2971 RMK A01 T00101013  RH  085%=      5-min Rain = 0
KEA1 150650Z 10003KT 01/M01 A2971 RMK A01 T00091014  RH  085%=      5-min Rain = 0
KEA1 150651Z 10002KT 01/M01 A2971 RMK A01 T00081014  RH  085%=      5-min Rain = 0
KEA1 150652Z 11002KT 01/M01 A2971 RMK A01 T00081014  RH  086%=      5-min Rain = 0
KEA1 150653Z 11002KT 01/M01 A2971 RMK A01 T00071013  RH  086%=      5-min Rain = 0
KEA1 150654Z 10002KT 01/M01 A2971 RMK A01 T00081011  RH  087%=      5-min Rain = 0
KEA1 150655Z 10002KT 01/M01 A2971 RMK A01 T00081009  RH  088%=      5-min Rain = 0
KEA1 150656Z 10001KT 01/M01 A2971 RMK A01 T00091009  RH  088%=      5-min Rain = 0
KEA1 150657Z 10001KT 01/M01 A2971 RMK A01 T00081011  RH  087%=      5-min Rain = 0
KEA1 150658Z 02000KT 01/M01 A2971 RMK A01 T00071014  RH  086%=      5-min Rain = 0
KEA1 150659Z 00001KT 00/M02 A2971 RMK A01 T00041019  RH  085%=      5-min Rain = 0
KEA1 150700Z 36002KT M00/M03 A2971 RMK A01 T10011025  RH  084%=      5-min Rain = 0
KEA1 150701Z 36001KT M01/M03 A2971 RMK A01 T10051027  RH  085%=      5-min Rain = 0
KEA1 150702Z 00002KT M01/M02 A2971 RMK A01 T10051023  RH  087%=      5-min Rain = 0
KEA1 150703Z 34003KT M01/M02 A2971 RMK A01 T10061024  RH  087%=      5-min Rain = 0
KEA1 150704Z 01003KT M01/M02 A2971 RMK A01 T10061023  RH  088%=      5-min Rain = 0
KEA1 150705Z 01003KT M01/M02 A2971 RMK A01 T10051020  RH  090%=      5-min Rain = 0
KEA1 150706Z 36003KT M00/M02 A2971 RMK A01 T10041018  RH  090%=      5-min Rain = 0
KEA1 150707Z 00004KT M00/M02 A2971 RMK A01 T10041018  RH  090%=      5-min Rain = 0
KEA1 150708Z 01003KT M00/M02 A2971 RMK A01 T10041018  RH  090%=      5-min Rain = 0
KEA1 150709Z 01003KT M00/M02 A2971 RMK A01 T10041017  RH  090%=      5-min Rain = 0
KEA1 150710Z 00003KT M00/M02 A2971 RMK A01 T10041018  RH  090%=      5-min Rain = 0
KEA1 150711Z 35003KT M00/M02 A2971 RMK A01 T10041019  RH  090%=      5-min Rain = 0
KEA1 150712Z 00003KT M01/M02 A2971 RMK A01 T10051019  RH  090%=      5-min Rain = 0
KEA1 150713Z 00002KT M01/M02 A2971 RMK A01 T10051019  RH  090%=      5-min Rain = 0
KEA1 150714Z 00001KT M01/M02 A2971 RMK A01 T10051018  RH  091%=      5-min Rain = 0
KEA1 150715Z 35002KT M00/M02 A2971 RMK A01 T10041016  RH  092%=      5-min Rain = 0
KEA1 150716Z 00002KT M00/M02 A2971 RMK A01 T10031015  RH  092%=      5-min Rain = 0
KEA1 150717Z 34002KT M00/M02 A2971 RMK A01 T10031015  RH  091%=      5-min Rain = 0
KEA1 150718Z 33002KT M00/M02 A2971 RMK A01 T10041017  RH  091%=      5-min Rain = 0
KEA1 150719Z 33002KT M00/M02 A2971 RMK A01 T10041018  RH  091%=      5-min Rain = 0
KEA1 150720Z 33002KT M01/M02 A2971 RMK A01 T10051018  RH  090%=      5-min Rain = 0
KEA1 150721Z 33001KT M01/M02 A2971 RMK A01 T10051018  RH  091%=      5-min Rain = 0
KEA1 150722Z 32002KT M01/M02 A2971 RMK A01 T10061020  RH  090%=      5-min Rain = 0
KEA1 150723Z 31002KT M01/M02 A2971 RMK A01 T10071021  RH  090%=      5-min Rain = 0
KEA1 150724Z 31000KT M00/M02 A2971 RMK A01 T10041016  RH  092%=      5-min Rain = 0
KEA1 150725Z 31002KT 00/01 A2971 RMK A01 T00-00-10  RH  093%=      5-min Rain = 0
KEA1 150726Z 00001KT 00/M01 A2971 RMK A01 T00031006  RH  094%=      5-min Rain = 0
KEA1 150727Z 29002KT 00/M01 A2971 RMK A01 T00041006  RH  094%=      5-min Rain = 0
KEA1 150728Z 33002KT 01/M01 A2971 RMK A01 T00051005  RH  093%=      5-min Rain = 0
KEA1 150729Z 32002KT 01/00 A2971 RMK A01 T000900-0  RH  094%=      5-min Rain = 0
KEA1 150730Z 30002KT 01/M00 A2971 RMK A01 T00101001  RH  093%=      5-min Rain = 0
KEA1 150731Z 05001KT 01/M00 A2971 RMK A01 T00101001  RH  092%=      5-min Rain = 0
KEA1 150732Z 00001KT 01/00 A2971 RMK A01 T00120002  RH  093%=      5-min Rain = 0
KEA1 150733Z 04002KT 01/00 A2971 RMK A01 T00130002  RH  092%=      5-min Rain = 0
KEA1 150734Z 01001KT 01/00 A2971 RMK A01 T00140001  RH  091%=      5-min Rain = 0
KEA1 150735Z 35001KT 01/00 A2971 RMK A01 T001400-0  RH  090%=      5-min Rain = 0
KEA1 150736Z 33001KT 01/M00 A2971 RMK A01 T00131002  RH  090%=      5-min Rain = 0
KEA1 150737Z 35001KT 01/M00 A2971 RMK A01 T00121003  RH  090%=      5-min Rain = 0
KEA1 150738Z 35000KT 01/M00 A2971 RMK A01 T00131002  RH  090%=      5-min Rain = 0
KEA1 150739Z 32001KT 01/M00 A2971 RMK A01 T00121003  RH  090%=      5-min Rain = 0
KEA1 150740Z 33001KT 01/M00 A2971 RMK A01 T00121002  RH  090%=      5-min Rain = 0
KEA1 150741Z 30001KT 01/M01 A2971 RMK A01 T00101008  RH  088%=      5-min Rain = 0
KEA1 150742Z 31000KT 01/M01 A2971 RMK A01 T00071011  RH  088%=      5-min Rain = 0
KEA1 150743Z 30001KT 01/M01 A2971 RMK A01 T00071008  RH  089%=      5-min Rain = 0
KEA1 150744Z 28001KT 01/M01 A2971 RMK A01 T00061010  RH  089%=      5-min Rain = 0
KEA1 150745Z 26001KT 01/M01 A2971 RMK A01 T00061008  RH  090%=      5-min Rain = 0
KEA1 150746Z 00000KT 01/M01 A2971 RMK A01 T00061008  RH  090%=      5-min Rain = 0
KEA1 150747Z 22001KT 01/M01 A2971 RMK A01 T00051010  RH  090%=      5-min Rain = 0
KEA1 150748Z 23000KT 01/M01 A2971 RMK A01 T00051009  RH  091%=      5-min Rain = 0
KEA1 150749Z 30001KT 01/M01 A2971 RMK A01 T00051008  RH  091%=      5-min Rain = 0
KEA1 150750Z 31001KT 01/M01 A2971 RMK A01 T00051008  RH  091%=      5-min Rain = 0
KEA1 150751Z 29001KT 01/M01 A2971 RMK A01 T00051008  RH  091%=      5-min Rain = 0
KEA1 150752Z 27001KT 01/M01 A2971 RMK A01 T00051008  RH  091%=      5-min Rain = 0
KEA1 150753Z 27001KT 01/M01 A2971 RMK A01 T00051008  RH  091%=      5-min Rain = 0
KEA1 150754Z 28001KT 01/M01 A2971 RMK A01 T00061006  RH  092%=      5-min Rain = 0
KEA1 150755Z 29001KT 01/M01 A2971 RMK A01 T00061006  RH  091%=      5-min Rain = 0
KEA1 150756Z 27001KT 01/M01 A2971 RMK A01 T00071006  RH  091%=      5-min Rain = 0
KEA1 150757Z 25001KT 01/M01 A2971 RMK A01 T00071005  RH  092%=      5-min Rain = 0
KEA1 150758Z 25001KT 01/M00 A2971 RMK A01 T00091001  RH  092%=      5-min Rain = 0
KEA1 150759Z 25000KT 01/00 A2971 RMK A01 T00110000  RH  093%=      5-min Rain = 0
KEA1 150800Z 00000KT 01/M00 A2971 RMK A01 T00111001  RH  092%=      5-min Rain = 0
KEA1 150801Z 00000KT 01/M00 A2971 RMK A01 T00111001  RH  091%=      5-min Rain = 0
KEA1 150802Z 01001KT 01/M00 A2971 RMK A01 T00101003  RH  091%=      5-min Rain = 0
KEA1 150803Z 01002KT 01/M01 A2971 RMK A01 T00091005  RH  090%=      5-min Rain = 0
KEA1 150804Z 03002KT 01/M01 A2971 RMK A01 T00081006  RH  090%=      5-min Rain = 0
KEA1 150805Z 03002KT 01/M01 A2971 RMK A01 T00071008  RH  090%=      5-min Rain = 0
KEA1 150806Z 04002KT 01/M01 A2971 RMK A01 T00051010  RH  089%=      5-min Rain = 0
KEA1 150807Z 06001KT 00/M01 A2971 RMK A01 T00041011  RH  090%=      5-min Rain = 0
KEA1 150808Z 06001KT 00/M01 A2971 RMK A01 T00041010  RH  091%=      5-min Rain = 0
KEA1 150809Z 06001KT 00/M01 A2971 RMK A01 T00031010  RH  091%=      5-min Rain = 0
KEA1 150810Z 06001KT 00/M01 A2971 RMK A01 T00031011  RH  090%=      5-min Rain = 0
KEA1 150811Z 06000KT 00/M01 A2971 RMK A01 T00011013  RH  090%=      5-min Rain = 0
KEA1 150812Z 00000KT 00/01 A2971 RMK A01 T00000-14  RH  091%=      5-min Rain = 0
KEA1 150813Z 00000KT 00/01 A2971 RMK A01 T00-00-13  RH  091%=      5-min Rain = 0
KEA1 150814Z 06000KT 00/01 A2971 RMK A01 T00000-11  RH  092%=      5-min Rain = 0
KEA1 150815Z 17001KT 00/01 A2971 RMK A01 T00-00-12  RH  092%=      5-min Rain = 0
KEA1 150816Z 21002KT 00/01 A2971 RMK A01 T00-00-12  RH  092%=      5-min Rain = 0
KEA1 150817Z 23002KT M00/M02 A2971 RMK A01 T10031017  RH  090%=      5-min Rain = 0
KEA1 150818Z 24002KT M01/M03 A2971 RMK A01 T10091028  RH  088%=      5-min Rain = 0
KEA1 150819Z 23002KT M01/M03 A2971 RMK A01 T10131030  RH  088%=      5-min Rain = 0
KEA1 150820Z 24002KT M01/M03 A2971 RMK A01 T10131027  RH  090%=      5-min Rain = 0
KEA1 150821Z 25003KT M01/M02 A2971 RMK A01 T10111022  RH  092%=      5-min Rain = 0
KEA1 150822Z 25002KT M01/M01 A2971 RMK A01 T10051013  RH  095%=      5-min Rain = 0
KEA1 150823Z 26002KT M00/M01 A2971 RMK A01 T10021008  RH  095%=      5-min Rain = 0
KEA1 150824Z 26002KT 00/01 A2971 RMK A01 T00-000-7  RH  095%=      5-min Rain = 0
KEA1 150825Z 26003KT 00/M01 A2971 RMK A01 T00011006  RH  095%=      5-min Rain = 0
KEA1 150826Z 25003KT 00/M00 A2971 RMK A01 T00031004  RH  095%=      5-min Rain = 0
KEA1 150827Z 26002KT 00/M00 A2971 RMK A01 T00041003  RH  095%=      5-min Rain = 0
KEA1 150828Z 26003KT 00/M01 A2971 RMK A01 T00041005  RH  094%=      5-min Rain = 0
KEA1 150829Z 26003KT 00/M01 A2971 RMK A01 T00021009  RH  092%=      5-min Rain = 0
KEA1 150830Z 26004KT 00/01 A2971 RMK A01 T00-00-13  RH  091%=      5-min Rain = 0
KEA1 150831Z 26004KT M00/M02 A2971 RMK A01 T10031018  RH  090%=      5-min Rain = 0
KEA1 150832Z 26005KT M01/M02 A2971 RMK A01 T10061023  RH  089%=      5-min Rain = 0
KEA1 150833Z 26005KT M01/M03 A2971 RMK A01 T10091025  RH  089%=      5-min Rain = 0
KEA1 150834Z 26005KT M01/M03 A2971 RMK A01 T10111026  RH  089%=      5-min Rain = 0
KEA1 150835Z 26005KT M01/M03 A2971 RMK A01 T10121026  RH  090%=      5-min Rain = 0
KEA1 150836Z 26006KT M01/M02 A2971 RMK A01 T10121024  RH  091%=      5-min Rain = 0
KEA1 150837Z 27005KT M01/M02 A2971 RMK A01 T10111023  RH  092%=      5-min Rain = 0
KEA1 150838Z 27006KT M01/M02 A2971 RMK A01 T10111022  RH  092%=      5-min Rain = 0
KEA1 150839Z 27006KT M01/M02 A2971 RMK A01 T10111022  RH  092%=      5-min Rain = 0
KEA1 150840Z 28005KT M01/M02 A2971 RMK A01 T10111022  RH  092%=      5-min Rain = 0
KEA1 150841Z 27006KT M01/M02 A2971 RMK A01 T10111021  RH  093%=      5-min Rain = 0
KEA1 150842Z 27006KT M01/M02 A2971 RMK A01 T10101019  RH  093%=      5-min Rain = 0
KEA1 150843Z 27006KT M01/M02 A2971 RMK A01 T10091018  RH  094%=      5-min Rain = 0
KEA1 150844Z 27005KT M01/M02 A2971 RMK A01 T10081017  RH  094%=      5-min Rain = 0
KEA1 150845Z 27005KT M01/M02 A2971 RMK A01 T10081017  RH  094%=      5-min Rain = 0
KEA1 150846Z 27005KT M01/M02 A2971 RMK A01 T10081017  RH  093%=      5-min Rain = 0
KEA1 150847Z 27006KT M01/M02 A2971 RMK A01 T10081018  RH  093%=      5-min Rain = 0
KEA1 150848Z 27006KT M01/M02 A2971 RMK A01 T10081017  RH  093%=      5-min Rain = 0
KEA1 150849Z 27006KT M01/M02 A2971 RMK A01 T10081017  RH  093%=      5-min Rain = 0
KEA1 150850Z 27006KT M01/M02 A2971 RMK A01 T10071017  RH  094%=      5-min Rain = 0
KEA1 150851Z 26006KT M01/M02 A2971 RMK A01 T10071016  RH  094%=      5-min Rain = 0
KEA1 150852Z 26006KT M01/M02 A2971 RMK A01 T10071016  RH  094%=      5-min Rain = 0
KEA1 150853Z 26006KT M01/M02 A2971 RMK A01 T10061015  RH  094%=      5-min Rain = 0
KEA1 150854Z 26006KT M01/M02 A2971 RMK A01 T10061015  RH  093%=      5-min Rain = 0
KEA1 150855Z 26006KT M01/M02 A2971 RMK A01 T10051015  RH  093%=      5-min Rain = 0
KEA1 150856Z 26006KT M01/M02 A2971 RMK A01 T10051015  RH  093%=      5-min Rain = 0
KEA1 150857Z 25006KT M01/M02 A2971 RMK A01 T10051015  RH  093%=      5-min Rain = 0
KEA1 150858Z 25006KT M00/M01 A2971 RMK A01 T10041014  RH  093%=      5-min Rain = 0
KEA1 150859Z 25006KT M00/M01 A2971 RMK A01 T10031014  RH  093%=      5-min Rain = 0
KEA1 150900Z 25006KT M00/M01 A2971 RMK A01 T10031014  RH  092%=      5-min Rain = 0
KEA1 150901Z 25006KT M00/M01 A2971 RMK A01 T10031014  RH  092%=      5-min Rain = 0
KEA1 150902Z 25006KT M00/M01 A2971 RMK A01 T10021013  RH  092%=      5-min Rain = 0
KEA1 150903Z 25006KT M00/M01 A2971 RMK A01 T10021013  RH  092%=      5-min Rain = 0
KEA1 150904Z 25006KT M00/M01 A2971 RMK A01 T10011013  RH  092%=      5-min Rain = 0
KEA1 150905Z 25006KT M00/M01 A2971 RMK A01 T10011012  RH  092%=      5-min Rain = 0
KEA1 150906Z 25006KT 00/01 A2971 RMK A01 T00-00-12  RH  092%=      5-min Rain = 0
KEA1 150907Z 25006KT 00/M01 A2971 RMK A01 T00011011  RH  092%=      5-min Rain = 0
KEA1 150908Z 26006KT 00/M01 A2971 RMK A01 T00011011  RH  092%=      5-min Rain = 0
KEA1 150909Z 26006KT 00/M01 A2971 RMK A01 T00011011  RH  091%=      5-min Rain = 0
KEA1 150910Z 26005KT 00/M01 A2971 RMK A01 T00011012  RH  091%=      5-min Rain = 0
KEA1 150911Z 25004KT 00/01 A2971 RMK A01 T00000-13  RH  091%=      5-min Rain = 0
KEA1 150912Z 25004KT 00/M01 A2971 RMK A01 T00011012  RH  091%=      5-min Rain = 0
KEA1 150913Z 25003KT 00/M01 A2971 RMK A01 T00011011  RH  092%=      5-min Rain = 0
KEA1 150914Z 24004KT 00/M01 A2971 RMK A01 T00021010  RH  092%=      5-min Rain = 0
KEA1 150915Z 25005KT 00/M01 A2971 RMK A01 T00031009  RH  092%=      5-min Rain = 0
KEA1 150916Z 24004KT 00/M01 A2971 RMK A01 T00041008  RH  091%=      5-min Rain = 0
KEA1 150917Z 23004KT 01/M01 A2971 RMK A01 T00051008  RH  091%=      5-min Rain = 0
KEA1 150918Z 23003KT 01/M01 A2971 RMK A01 T00061007  RH  091%=      5-min Rain = 0
KEA1 150919Z 23003KT 01/M01 A2971 RMK A01 T00071007  RH  091%=      5-min Rain = 0
KEA1 150920Z 23003KT 01/M01 A2971 RMK A01 T00071007  RH  091%=      5-min Rain = 0
KEA1 150921Z 23004KT 01/M01 A2971 RMK A01 T00071006  RH  091%=      5-min Rain = 0
KEA1 150922Z 23005KT 01/M00 A2971 RMK A01 T00091004  RH  091%=      5-min Rain = 0
KEA1 150923Z 23004KT 01/M00 A2971 RMK A01 T00101004  RH  090%=      5-min Rain = 0
KEA1 150924Z 23004KT 01/M00 A2971 RMK A01 T00101004  RH  090%=      5-min Rain = 0
KEA1 150925Z 23003KT 01/M00 A2971 RMK A01 T00111003  RH  091%=      5-min Rain = 0
KEA1 150926Z 22003KT 01/M00 A2971 RMK A01 T00111002  RH  091%=      5-min Rain = 0
KEA1 150927Z 22002KT 01/M00 A2971 RMK A01 T00131001  RH  091%=      5-min Rain = 0
KEA1 150928Z 22002KT 01/00 A2971 RMK A01 T00140000  RH  091%=      5-min Rain = 0
KEA1 150929Z 22002KT 01/00 A2971 RMK A01 T00140001  RH  091%=      5-min Rain = 0
KEA1 150930Z 22002KT 02/00 A2971 RMK A01 T00150001  RH  090%=      5-min Rain = 0
KEA1 150931Z 23001KT 02/00 A2971 RMK A01 T00150000  RH  090%=      5-min Rain = 0
KEA1 150932Z 24000KT 01/M00 A2971 RMK A01 T00141002  RH  089%=      5-min Rain = 0
KEA1 150933Z 00000KT 01/M00 A2971 RMK A01 T00131004  RH  089%=      5-min Rain = 0
KEA1 150934Z 18000KT 01/M00 A2971 RMK A01 T00131004  RH  089%=      5-min Rain = 0
KEA1 150935Z 19002KT 01/M00 A2971 RMK A01 T00131003  RH  089%=      5-min Rain = 0
KEA1 150936Z 19001KT 01/M00 A2971 RMK A01 T00131003  RH  089%=      5-min Rain = 0
KEA1 150937Z 20002KT 01/M01 A2971 RMK A01 T00121006  RH  088%=      5-min Rain = 0
KEA1 150938Z 21002KT 01/M01 A2971 RMK A01 T00111007  RH  088%=      5-min Rain = 0
KEA1 150939Z 22002KT 01/M01 A2971 RMK A01 T00111007  RH  088%=      5-min Rain = 0
KEA1 150940Z 21003KT 01/M01 A2971 RMK A01 T00101008  RH  087%=      5-min Rain = 0
KEA1 150941Z 21002KT 01/M01 A2971 RMK A01 T00111009  RH  087%=      5-min Rain = 0
KEA1 150942Z 21002KT 01/M01 A2971 RMK A01 T00101010  RH  087%=      5-min Rain = 0
KEA1 150943Z 21002KT 01/M01 A2971 RMK A01 T00081012  RH  087%=      5-min Rain = 0
KEA1 150944Z 19001KT 01/M01 A2971 RMK A01 T00061013  RH  087%=      5-min Rain = 0
KEA1 150945Z 21001KT 00/M02 A2971 RMK A01 T00021019  RH  086%=      5-min Rain = 0
KEA1 150946Z 19001KT 00/02 A2971 RMK A01 T00000-18  RH  088%=      5-min Rain = 0
KEA1 150947Z 19002KT 00/02 A2971 RMK A01 T00-00-16  RH  089%=      5-min Rain = 0
KEA1 150948Z 20002KT 00/M01 A2971 RMK A01 T00011012  RH  091%=      5-min Rain = 0
KEA1 150949Z 20002KT 00/M01 A2971 RMK A01 T00021011  RH  091%=      5-min Rain = 0
KEA1 150950Z 20002KT 00/M01 A2971 RMK A01 T00021011  RH  091%=      5-min Rain = 0
KEA1 150951Z 22002KT 00/M01 A2971 RMK A01 T00021013  RH  090%=      5-min Rain = 0
KEA1 150952Z 23003KT 00/M01 A2971 RMK A01 T00021011  RH  091%=      5-min Rain = 0
KEA1 150953Z 21002KT 00/M01 A2971 RMK A01 T00031010  RH  091%=      5-min Rain = 0
KEA1 150954Z 20002KT 00/M01 A2971 RMK A01 T00041010  RH  090%=      5-min Rain = 0
KEA1 150955Z 20003KT 01/M01 A2971 RMK A01 T00061008  RH  090%=      5-min Rain = 0
KEA1 150956Z 21004KT 01/M00 A2971 RMK A01 T00101004  RH  091%=      5-min Rain = 0
KEA1 150957Z 20004KT 01/M00 A2971 RMK A01 T00111003  RH  090%=      5-min Rain = 0
KEA1 150958Z 21004KT 02/M00 A2971 RMK A01 T00151002  RH  089%=      5-min Rain = 0
KEA1 150959Z 21005KT 02/00 A2971 RMK A01 T00220002  RH  086%=      5-min Rain = 0
KEA1 151000Z 21006KT 03/00 A2971 RMK A01 T002900-0  RH  081%=      5-min Rain = 0
KEA1 151001Z 22006KT 03/M00 A2971 RMK A01 T00331002  RH  078%=      5-min Rain = 0
KEA1 151002Z 23005KT 04/M00 A2971 RMK A01 T00371001  RH  076%=      5-min Rain = 0
KEA1 151003Z 23005KT 04/00 A2971 RMK A01 T00400001  RH  076%=      5-min Rain = 0
KEA1 151004Z 23004KT 04/00 A2971 RMK A01 T00420000  RH  074%=      5-min Rain = 0
KEA1 151005Z 24005KT 04/00 A2971 RMK A01 T004300-0  RH  074%=      5-min Rain = 0
KEA1 151006Z 24006KT 04/00 A2971 RMK A01 T00430002  RH  075%=      5-min Rain = 0
KEA1 151007Z 23007KT 04/01 A2971 RMK A01 T00430005  RH  076%=      5-min Rain = 0
KEA1 151008Z 24007KT 04/01 A2971 RMK A01 T00440005  RH  076%=      5-min Rain = 0
KEA1 151009Z 24008KT 04/01 A2971 RMK A01 T00440005  RH  076%=      5-min Rain = 0
KEA1 151010Z 24007KT 05/01 A2971 RMK A01 T00470006  RH  075%=      5-min Rain = 0
KEA1 151011Z 25006KT 05/01 A2971 RMK A01 T00470005  RH  074%=      5-min Rain = 0
KEA1 151012Z 24005KT 05/01 A2971 RMK A01 T00470006  RH  075%=      5-min Rain = 0
KEA1 151013Z 24006KT 05/01 A2971 RMK A01 T00470008  RH  076%=      5-min Rain = 0
KEA1 151014Z 24008KT 05/00 A2971 RMK A01 T00470004  RH  074%=      5-min Rain = 0
KEA1 151015Z 24008KT 05/00 A2971 RMK A01 T00460000  RH  072%=      5-min Rain = 0
KEA1 151016Z 24008KT 05/M00 A2971 RMK A01 T00461001  RH  071%=      5-min Rain = 0
KEA1 151017Z 24007KT 05/M00 A2971 RMK A01 T00461001  RH  072%=      5-min Rain = 0
KEA1 151018Z 24006KT 05/M00 A2971 RMK A01 T00451001  RH  072%=      5-min Rain = 0
KEA1 151019Z 25005KT 04/M00 A2971 RMK A01 T00431003  RH  072%=      5-min Rain = 0
KEA1 151020Z 25004KT 04/M00 A2971 RMK A01 T00401004  RH  073%=      5-min Rain = 0
KEA1 151021Z 25005KT 04/M01 A2971 RMK A01 T00361009  RH  072%=      5-min Rain = 0
KEA1 151022Z 25005KT 03/M01 A2971 RMK A01 T00311012  RH  073%=      5-min Rain = 0
KEA1 151023Z 25006KT 03/M01 A2971 RMK A01 T00271013  RH  075%=      5-min Rain = 0
KEA1 151024Z 26006KT 02/M01 A2971 RMK A01 T00241014  RH  076%=      5-min Rain = 0
KEA1 151025Z 25006KT 02/M02 A2971 RMK A01 T00211016  RH  077%=      5-min Rain = 0
KEA1 151026Z 26005KT 02/M02 A2971 RMK A01 T00181017  RH  078%=      5-min Rain = 0
KEA1 151027Z 26005KT 02/M02 A2971 RMK A01 T00151017  RH  079%=      5-min Rain = 0
KEA1 151028Z 27005KT 01/M02 A2971 RMK A01 T00131019  RH  079%=      5-min Rain = 0
KEA1 151029Z 28005KT 01/M02 A2971 RMK A01 T00111019  RH  080%=      5-min Rain = 0
KEA1 151030Z 28006KT 01/M02 A2971 RMK A01 T00081021  RH  081%=      5-min Rain = 0
KEA1 151031Z 29006KT 00/M02 A2971 RMK A01 T00041023  RH  082%=      5-min Rain = 0
KEA1 151032Z 28007KT 00/M02 A2971 RMK A01 T00021024  RH  083%=      5-min Rain = 0
KEA1 151033Z 27007KT M00/M02 A2971 RMK A01 T10011023  RH  085%=      5-min Rain = 0
KEA1 151034Z 27007KT M00/M02 A2971 RMK A01 T10011022  RH  086%=      5-min Rain = 0
KEA1 151035Z 27007KT M00/M02 A2971 RMK A01 T10011021  RH  087%=      5-min Rain = 0
KEA1 151036Z 27007KT M00/M02 A2971 RMK A01 T10021021  RH  087%=      5-min Rain = 0
KEA1 151037Z 27008KT M00/M02 A2971 RMK A01 T10021021  RH  087%=      5-min Rain = 0
KEA1 151038Z 26008KT M00/M02 A2971 RMK A01 T10021021  RH  087%=      5-min Rain = 0
KEA1 151039Z 26008KT M00/M02 A2971 RMK A01 T10021021  RH  087%=      5-min Rain = 0
KEA1 151040Z 26008KT M00/M02 A2971 RMK A01 T10021020  RH  088%=      5-min Rain = 0
KEA1 151041Z 26008KT M00/M02 A2971 RMK A01 T10011020  RH  088%=      5-min Rain = 0
KEA1 151042Z 26008KT M00/M02 A2971 RMK A01 T10011019  RH  088%=      5-min Rain = 0
KEA1 151043Z 27008KT 00/M02 A2971 RMK A01 T00011018  RH  087%=      5-min Rain = 0
KEA1 151044Z 27008KT 00/M02 A2971 RMK A01 T00021018  RH  087%=      5-min Rain = 0
KEA1 151045Z 27008KT 00/M02 A2971 RMK A01 T00021018  RH  087%=      5-min Rain = 0
KEA1 151046Z 26008KT 00/M02 A2971 RMK A01 T00021018  RH  087%=      5-min Rain = 0
KEA1 151047Z 26008KT 00/M02 A2971 RMK A01 T00021018  RH  086%=      5-min Rain = 0
KEA1 151048Z 26008KT 00/M02 A2971 RMK A01 T00021019  RH  086%=      5-min Rain = 0
KEA1 151049Z 26008KT 00/M02 A2971 RMK A01 T00021019  RH  086%=      5-min Rain = 0
KEA1 151050Z 26008KT 00/M02 A2971 RMK A01 T00011021  RH  085%=      5-min Rain = 0
KEA1 151051Z 27008KT 00/02 A2971 RMK A01 T00-00-22  RH  085%=      5-min Rain = 0
KEA1 151052Z 27008KT M00/M02 A2971 RMK A01 T10011023  RH  085%=      5-min Rain = 0
KEA1 151053Z 26008KT M00/M02 A2971 RMK A01 T10021024  RH  085%=      5-min Rain = 0
KEA1 151054Z 26008KT M00/M03 A2971 RMK A01 T10031025  RH  085%=      5-min Rain = 0
KEA1 151055Z 26008KT M00/M03 A2971 RMK A01 T10041025  RH  086%=      5-min Rain = 0
KEA1 151056Z 27008KT M00/M03 A2971 RMK A01 T10041025  RH  086%=      5-min Rain = 0
KEA1 151057Z 27008KT M01/M03 A2971 RMK A01 T10051025  RH  086%=      5-min Rain = 0
KEA1 151058Z 26008KT M01/M03 A2971 RMK A01 T10051026  RH  086%=      5-min Rain = 0
KEA1 151059Z 27008KT M01/M03 A2971 RMK A01 T10051026  RH  086%=      5-min Rain = 0
KEA1 151100Z 26008KT M01/M03 A2971 RMK A01 T10061026  RH  086%=      5-min Rain = 0
KEA1 151101Z 26008KT M01/M03 A2971 RMK A01 T10061026  RH  087%=      5-min Rain = 0
KEA1 151102Z 26008KT M01/M03 A2971 RMK A01 T10061025  RH  087%=      5-min Rain = 0
KEA1 151103Z 26008KT M01/M03 A2971 RMK A01 T10061025  RH  087%=      5-min Rain = 0
KEA1 151104Z 26008KT M01/M03 A2971 RMK A01 T10061025  RH  087%=      5-min Rain = 0
KEA1 151105Z 25008KT M01/M02 A2971 RMK A01 T10051024  RH  087%=      5-min Rain = 0
KEA1 151106Z 25008KT M00/M02 A2971 RMK A01 T10041023  RH  087%=      5-min Rain = 0
KEA1 151107Z 25007KT M00/M02 A2971 RMK A01 T10031023  RH  087%=      5-min Rain = 0
KEA1 151108Z 26007KT M00/M02 A2971 RMK A01 T10031023  RH  086%=      5-min Rain = 0
KEA1 151109Z 26007KT M00/M02 A2971 RMK A01 T10031024  RH  086%=      5-min Rain = 0
KEA1 151110Z 26007KT M00/M02 A2971 RMK A01 T10031024  RH  086%=      5-min Rain = 0
KEA1 151111Z 26007KT M00/M02 A2971 RMK A01 T10031024  RH  086%=      5-min Rain = 0
KEA1 151112Z 26007KT M00/M02 A2971 RMK A01 T10031024  RH  086%=      5-min Rain = 0
KEA1 151113Z 26007KT M00/M02 A2971 RMK A01 T10031024  RH  086%=      5-min Rain = 0
KEA1 151114Z 26007KT M00/M02 A2971 RMK A01 T10031024  RH  086%=      5-min Rain = 0
KEA1 151115Z 26007KT M00/M02 A2971 RMK A01 T10031024  RH  086%=      5-min Rain = 0
KEA1 151116Z 26007KT M00/M02 A2971 RMK A01 T10031023  RH  086%=      5-min Rain = 0
KEA1 151117Z 26007KT M00/M02 A2971 RMK A01 T10031023  RH  086%=      5-min Rain = 0
KEA1 151118Z 25007KT M00/M02 A2971 RMK A01 T10031024  RH  086%=      5-min Rain = 0
KEA1 151119Z 26007KT M00/M02 A2971 RMK A01 T10031023  RH  086%=      5-min Rain = 0
KEA1 151120Z 26007KT M00/M02 A2971 RMK A01 T10031024  RH  086%=      5-min Rain = 0
KEA1 151121Z 26007KT M00/M02 A2971 RMK A01 T10031024  RH  086%=      5-min Rain = 0
KEA1 151122Z 25008KT M00/M02 A2971 RMK A01 T10031023  RH  086%=      5-min Rain = 0
KEA1 151123Z 25008KT M00/M02 A2971 RMK A01 T10021023  RH  086%=      5-min Rain = 0
KEA1 151124Z 25008KT M00/M02 A2971 RMK A01 T10011021  RH  086%=      5-min Rain = 0
KEA1 151125Z 25007KT M00/M02 A2971 RMK A01 T10011021  RH  086%=      5-min Rain = 0
KEA1 151126Z 25007KT 00/02 A2971 RMK A01 T00-00-21  RH  086%=      5-min Rain = 0
KEA1 151127Z 25006KT 00/M02 A2971 RMK A01 T00011019  RH  086%=      5-min Rain = 0
KEA1 151128Z 24005KT 00/M02 A2971 RMK A01 T00021019  RH  086%=      5-min Rain = 0
KEA1 151129Z 25005KT 00/M02 A2971 RMK A01 T00031018  RH  086%=      5-min Rain = 0
KEA1 151130Z 25006KT 00/M02 A2971 RMK A01 T00041017  RH  086%=      5-min Rain = 0
KEA1 151131Z 25007KT 01/M02 A2971 RMK A01 T00051018  RH  085%=      5-min Rain = 0
KEA1 151132Z 24007KT 01/M02 A2971 RMK A01 T00051018  RH  085%=      5-min Rain = 0
KEA1 151133Z 24006KT 00/M02 A2971 RMK A01 T00041019  RH  084%=      5-min Rain = 0
KEA1 151134Z 24005KT 01/M02 A2971 RMK A01 T00051019  RH  084%=      5-min Rain = 0
KEA1 151135Z 24005KT 01/M02 A2971 RMK A01 T00051018  RH  085%=      5-min Rain = 0
KEA1 151136Z 25006KT 01/M02 A2971 RMK A01 T00051018  RH  085%=      5-min Rain = 0
KEA1 151137Z 24007KT 01/M02 A2971 RMK A01 T00051018  RH  084%=      5-min Rain = 0
KEA1 151138Z 24007KT 01/M02 A2971 RMK A01 T00051019  RH  084%=      5-min Rain = 0
KEA1 151139Z 24006KT 01/M02 A2971 RMK A01 T00051019  RH  084%=      5-min Rain = 0
KEA1 151140Z 24006KT 01/M02 A2971 RMK A01 T00051018  RH  084%=      5-min Rain = 0
KEA1 151141Z 24006KT 01/M02 A2971 RMK A01 T00071016  RH  085%=      5-min Rain = 0
KEA1 151142Z 24006KT 01/M01 A2971 RMK A01 T00091013  RH  085%=      5-min Rain = 0
KEA1 151143Z 24006KT 01/M01 A2971 RMK A01 T00111012  RH  085%=      5-min Rain = 0
KEA1 151144Z 23006KT 01/M01 A2971 RMK A01 T00131010  RH  085%=      5-min Rain = 0
KEA1 151145Z 23006KT 02/M01 A2971 RMK A01 T00151008  RH  084%=      5-min Rain = 0
KEA1 151146Z 23005KT 02/M01 A2971 RMK A01 T00171008  RH  083%=      5-min Rain = 0
KEA1 151147Z 23005KT 02/M01 A2971 RMK A01 T00181008  RH  082%=      5-min Rain = 0
KEA1 151148Z 23005KT 02/M01 A2971 RMK A01 T00201006  RH  083%=      5-min Rain = 0
KEA1 151149Z 22003KT 02/M00 A2971 RMK A01 T00231002  RH  083%=      5-min Rain = 0
KEA1 151150Z 22004KT 03/M00 A2971 RMK A01 T00261001  RH  083%=      5-min Rain = 0
KEA1 151151Z 23004KT 03/00 A2971 RMK A01 T00280000  RH  082%=      5-min Rain = 0
KEA1 151152Z 23005KT 03/M00 A2971 RMK A01 T00291001  RH  081%=      5-min Rain = 0
KEA1 151153Z 23004KT 03/M00 A2971 RMK A01 T00301001  RH  080%=      5-min Rain = 0
KEA1 151154Z 23004KT 03/00 A2971 RMK A01 T00300001  RH  081%=      5-min Rain = 0
KEA1 151155Z 21004KT 03/00 A2971 RMK A01 T00330004  RH  081%=      5-min Rain = 0
KEA1 151156Z 22004KT 04/01 A2971 RMK A01 T00360006  RH  081%=      5-min Rain = 0
KEA1 151157Z 23004KT 04/01 A2971 RMK A01 T00380008  RH  081%=      5-min Rain = 0
KEA1 151158Z 24005KT 04/01 A2971 RMK A01 T00410011  RH  081%=      5-min Rain = 0
KEA1 151159Z 24006KT 04/01 A2971 RMK A01 T00430010  RH  079%=      5-min Rain = 0
KEA1 151200Z 24008KT 04/01 A2972 RMK A01 T00440008  RH  078%=      5-min Rain = 0
KEA1 151201Z 24008KT 04/01 A2972 RMK A01 T00420006  RH  077%=      5-min Rain = 0
KEA1 151202Z 24008KT 04/01 A2972 RMK A01 T00420005  RH  077%=      5-min Rain = 0
KEA1 151203Z 24008KT 04/00 A2972 RMK A01 T00420004  RH  076%=      5-min Rain = 0
KEA1 151204Z 24009KT 04/00 A2972 RMK A01 T00410004  RH  076%=      5-min Rain = 0
KEA1 151205Z 24009KT 04/00 A2972 RMK A01 T00410001  RH  075%=      5-min Rain = 0
KEA1 151206Z 24009KT 04/00 A2972 RMK A01 T004100-0  RH  074%=      5-min Rain = 0
KEA1 151207Z 24009KT 04/00 A2972 RMK A01 T004000-0  RH  075%=      5-min Rain = 0
KEA1 151208Z 24009KT 04/M00 A2972 RMK A01 T00401001  RH  075%=      5-min Rain = 0
KEA1 151209Z 24009KT 04/M00 A2972 RMK A01 T00401001  RH  074%=      5-min Rain = 0
KEA1 151210Z 24008KT 04/M00 A2972 RMK A01 T00391002  RH  075%=      5-min Rain = 0
KEA1 151211Z 24008KT 04/M00 A2972 RMK A01 T00381002  RH  075%=      5-min Rain = 0
KEA1 151212Z 24008KT 04/M00 A2972 RMK A01 T00361003  RH  076%=      5-min Rain = 0
KEA1 151213Z 24007KT 04/M00 A2972 RMK A01 T00361002  RH  076%=      5-min Rain = 0
KEA1 151214Z 24008KT 04/M00 A2972 RMK A01 T00351002  RH  076%=      5-min Rain = 0
KEA1 151215Z 24008KT 04/M00 A2972 RMK A01 T00351003  RH  076%=      5-min Rain = 0
KEA1 151216Z 24007KT 03/M00 A2972 RMK A01 T00341003  RH  076%=      5-min Rain = 0
KEA1 151217Z 24007KT 03/M00 A2972 RMK A01 T00341003  RH  077%=      5-min Rain = 0
KEA1 151218Z 24007KT 03/M00 A2972 RMK A01 T00341003  RH  077%=      5-min Rain = 0
KEA1 151219Z 24008KT 03/M00 A2972 RMK A01 T00341004  RH  077%=      5-min Rain = 0
KEA1 151220Z 24008KT 03/M00 A2972 RMK A01 T00341003  RH  077%=      5-min Rain = 0
KEA1 151221Z 24009KT 03/M00 A2972 RMK A01 T00341002  RH  077%=      5-min Rain = 0
KEA1 151222Z 24009KT 03/M00 A2973 RMK A01 T00341003  RH  077%=      5-min Rain = 0
KEA1 151223Z 25008KT 03/M01 A2973 RMK A01 T00341005  RH  076%=      5-min Rain = 0
KEA1 151224Z 25009KT 03/M01 A2972 RMK A01 T00281013  RH  074%=      5-min Rain = 0
KEA1 151225Z 25009KT 02/M02 A2973 RMK A01 T00221018  RH  075%=      5-min Rain = 0
KEA1 151226Z 25009KT 02/M02 A2973 RMK A01 T00171020  RH  077%=      5-min Rain = 0
KEA1 151227Z 25009KT 01/M02 A2973 RMK A01 T00121021  RH  078%=      5-min Rain = 0
KEA1 151228Z 24009KT 01/M02 A2973 RMK A01 T00101020  RH  080%=      5-min Rain = 0
KEA1 151229Z 25010KT 01/M02 A2973 RMK A01 T00091018  RH  082%=      5-min Rain = 0
KEA1 151230Z 24010KT 01/M02 A2973 RMK A01 T00101017  RH  082%=      5-min Rain = 0
KEA1 151231Z 24009KT 01/M02 A2973 RMK A01 T00101018  RH  082%=      5-min Rain = 0
KEA1 151232Z 24010KT 01/M02 A2973 RMK A01 T00091018  RH  082%=      5-min Rain = 0
KEA1 151233Z 25010KT 01/M02 A2973 RMK A01 T00091018  RH  083%=      5-min Rain = 0
KEA1 151234Z 25010KT 01/M02 A2973 RMK A01 T00061021  RH  082%=      5-min Rain = 0
KEA1 151235Z 25008KT 00/M02 A2973 RMK A01 T00031023  RH  083%=      5-min Rain = 0
KEA1 151236Z 25008KT 00/M02 A2973 RMK A01 T00011024  RH  083%=      5-min Rain = 0
KEA1 151237Z 25007KT 00/02 A2973 RMK A01 T00-00-24  RH  084%=      5-min Rain = 0
KEA1 151238Z 25008KT M00/M03 A2973 RMK A01 T10011025  RH  084%=      5-min Rain = 0
KEA1 151239Z 24008KT M00/M03 A2973 RMK A01 T10021025  RH  085%=      5-min Rain = 0
KEA1 151240Z 25008KT M00/M03 A2973 RMK A01 T10031025  RH  085%=      5-min Rain = 0
KEA1 151241Z 25008KT M00/M03 A2973 RMK A01 T10031025  RH  086%=      5-min Rain = 0
KEA1 151242Z 24009KT M00/M03 A2973 RMK A01 T10041025  RH  086%=      5-min Rain = 0
KEA1 151243Z 24009KT M00/M03 A2973 RMK A01 T10041025  RH  086%=      5-min Rain = 0
KEA1 151244Z 25008KT M00/M02 A2973 RMK A01 T10041024  RH  087%=      5-min Rain = 0
KEA1 151245Z 25009KT M01/M03 A2973 RMK A01 T10051025  RH  087%=      5-min Rain = 0
KEA1 151246Z 24009KT M01/M02 A2973 RMK A01 T10051023  RH  087%=      5-min Rain = 0
KEA1 151247Z 24008KT M00/M02 A2973 RMK A01 T10031022  RH  087%=      5-min Rain = 0
KEA1 151248Z 26008KT M00/M02 A2973 RMK A01 T10021023  RH  086%=      5-min Rain = 0
KEA1 151249Z 25008KT M00/M02 A2973 RMK A01 T10031023  RH  086%=      5-min Rain = 0
KEA1 151250Z 25009KT M00/M02 A2973 RMK A01 T10021022  RH  086%=      5-min Rain = 0
KEA1 151251Z 25009KT M00/M02 A2973 RMK A01 T10021023  RH  086%=      5-min Rain = 0
KEA1 151252Z 25007KT M00/M02 A2973 RMK A01 T10021024  RH  085%=      5-min Rain = 0
KEA1 151253Z 27004KT M00/M03 A2974 RMK A01 T10031025  RH  085%=      5-min Rain = 0
KEA1 151254Z 28005KT M00/M03 A2974 RMK A01 T10041026  RH  085%=      5-min Rain = 0
KEA1 151255Z 27006KT M01/M03 A2974 RMK A01 T10051026  RH  086%=      5-min Rain = 0
KEA1 151256Z 26007KT M01/M03 A2974 RMK A01 T10051026  RH  086%=      5-min Rain = 0
KEA1 151257Z 27007KT M01/M03 A2974 RMK A01 T10051026  RH  086%=      5-min Rain = 0
KEA1 151258Z 27007KT M01/M03 A2974 RMK A01 T10061027  RH  086%=      5-min Rain = 0
KEA1 151259Z 27007KT M01/M03 A2974 RMK A01 T10071027  RH  086%=      5-min Rain = 0
KEA1 151300Z 27007KT M01/M03 A2974 RMK A01 T10081027  RH  087%=      5-min Rain = 0
KEA1 151301Z 26007KT M01/M03 A2974 RMK A01 T10081027  RH  087%=      5-min Rain = 0
KEA1 151302Z 26007KT M01/M03 A2974 RMK A01 T10091027  RH  087%=      5-min Rain = 0
KEA1 151303Z 28006KT M01/M03 A2974 RMK A01 T10091027  RH  087%=      5-min Rain = 0
KEA1 151304Z 27006KT M01/M03 A2974 RMK A01 T10091028  RH  087%=      5-min Rain = 0
KEA1 151305Z 27006KT M01/M03 A2974 RMK A01 T10101028  RH  087%=      5-min Rain = 0
KEA1 151306Z 28006KT M01/M03 A2974 RMK A01 T10101028  RH  088%=      5-min Rain = 0
KEA1 151307Z 28006KT M01/M03 A2974 RMK A01 T10091027  RH  088%=      5-min Rain = 0
KEA1 151308Z 28006KT M01/M03 A2974 RMK A01 T10101027  RH  088%=      5-min Rain = 0
KEA1 151309Z 25006KT M01/M03 A2974 RMK A01 T10091027  RH  088%=      5-min Rain = 0
KEA1 151310Z 25005KT M01/M03 A2974 RMK A01 T10101027  RH  088%=      5-min Rain = 0
KEA1 151311Z 29005KT M01/M03 A2974 RMK A01 T10101028  RH  088%=      5-min Rain = 0
KEA1 151312Z 25005KT M01/M03 A2974 RMK A01 T10101027  RH  088%=      5-min Rain = 0
KEA1 151313Z 23007KT M01/M03 A2974 RMK A01 T10091026  RH  088%=      5-min Rain = 0
KEA1 151314Z 23005KT M01/M03 A2974 RMK A01 T10071025  RH  088%=      5-min Rain = 0
KEA1 151315Z 22004KT M01/M03 A2974 RMK A01 T10071025  RH  088%=      5-min Rain = 0
KEA1 151316Z 23005KT M01/M03 A2974 RMK A01 T10071025  RH  088%=      5-min Rain = 0
KEA1 151317Z 23006KT M01/M02 A2974 RMK A01 T10051022  RH  088%=      5-min Rain = 0
KEA1 151318Z 24004KT M00/M02 A2974 RMK A01 T10021019  RH  088%=      5-min Rain = 0
KEA1 151319Z 24004KT M00/M02 A2974 RMK A01 T10011021  RH  086%=      5-min Rain = 0
KEA1 151320Z 23006KT M00/M02 A2974 RMK A01 T10011020  RH  087%=      5-min Rain = 0
KEA1 151321Z 23006KT 00/M02 A2974 RMK A01 T00041015  RH  088%=      5-min Rain = 0
KEA1 151322Z 24005KT 01/M02 A2974 RMK A01 T00051017  RH  085%=      5-min Rain = 0
KEA1 151323Z 24005KT 01/M02 A2974 RMK A01 T00061017  RH  084%=      5-min Rain = 0
KEA1 151324Z 24005KT 01/M01 A2974 RMK A01 T00101012  RH  086%=      5-min Rain = 0
KEA1 151325Z 24005KT 01/M01 A2974 RMK A01 T00141010  RH  084%=      5-min Rain = 0
KEA1 151326Z 25004KT 01/M02 A2974 RMK A01 T00111020  RH  079%=      5-min Rain = 0
KEA1 151327Z 24006KT 01/M02 A2974 RMK A01 T00061023  RH  081%=      5-min Rain = 0
KEA1 151328Z 24006KT 01/M02 A2974 RMK A01 T00091015  RH  084%=      5-min Rain = 0
KEA1 151329Z 24005KT 01/M02 A2974 RMK A01 T00101017  RH  082%=      5-min Rain = 0
KEA1 151330Z 23005KT 01/M02 A2974 RMK A01 T00091020  RH  081%=      5-min Rain = 0
KEA1 151331Z 22005KT 01/M02 A2974 RMK A01 T00071021  RH  082%=      5-min Rain = 0
KEA1 151332Z 22006KT 01/M02 A2974 RMK A01 T00061020  RH  083%=      5-min Rain = 0
KEA1 151333Z 23006KT 01/M01 A2975 RMK A01 T00101011  RH  086%=      5-min Rain = 0
KEA1 151334Z 22005KT 02/M00 A2975 RMK A01 T00191003  RH  086%=      5-min Rain = 0
KEA1 151335Z 24004KT 03/00 A2975 RMK A01 T00280002  RH  083%=      5-min Rain = 0
KEA1 151336Z 26005KT 03/00 A2975 RMK A01 T003400-0  RH  078%=      5-min Rain = 0
KEA1 151337Z 25006KT 03/M02 A2975 RMK A01 T00251019  RH  073%=      5-min Rain = 0
KEA1 151338Z 23006KT 02/M02 A2975 RMK A01 T00171019  RH  077%=      5-min Rain = 0
KEA1 151339Z 23007KT 02/M01 A2975 RMK A01 T00211008  RH  081%=      5-min Rain = 0
KEA1 151340Z 29005KT 03/M01 A2975 RMK A01 T00261007  RH  079%=      5-min Rain = 0
KEA1 151341Z 27005KT 02/M02 A2975 RMK A01 T00211018  RH  075%=      5-min Rain = 0
KEA1 151342Z 25004KT 02/M02 A2975 RMK A01 T00151022  RH  077%=      5-min Rain = 0
KEA1 151343Z 24005KT 01/M02 A2975 RMK A01 T00121020  RH  079%=      5-min Rain = 0
KEA1 151344Z 25005KT 01/M02 A2975 RMK A01 T00131016  RH  081%=      5-min Rain = 0
KEA1 151345Z 27003KT 01/M02 A2975 RMK A01 T00121018  RH  080%=      5-min Rain = 0
KEA1 151346Z 24006KT 01/M02 A2975 RMK A01 T00081023  RH  080%=      5-min Rain = 0
KEA1 151347Z 30004KT 01/M02 A2975 RMK A01 T00061022  RH  082%=      5-min Rain = 0
KEA1 151348Z 23004KT 00/M02 A2975 RMK A01 T00041022  RH  083%=      5-min Rain = 0
KEA1 151349Z 22006KT 00/M02 A2975 RMK A01 T00041020  RH  084%=      5-min Rain = 0
KEA1 151350Z 26004KT 01/M02 A2975 RMK A01 T00071016  RH  085%=      5-min Rain = 0
KEA1 151351Z 24004KT 01/M02 A2975 RMK A01 T00091017  RH  083%=      5-min Rain = 0
KEA1 151352Z 27005KT 01/M02 A2975 RMK A01 T00071019  RH  083%=      5-min Rain = 0
KEA1 151353Z 31005KT 01/M02 A2975 RMK A01 T00061020  RH  083%=      5-min Rain = 0
KEA1 151354Z 29004KT 00/M02 A2976 RMK A01 T00031022  RH  083%=      5-min Rain = 0
KEA1 151355Z 28004KT 00/M02 A2976 RMK A01 T00021021  RH  084%=      5-min Rain = 0
KEA1 151356Z 23004KT 00/M02 A2975 RMK A01 T00021020  RH  085%=      5-min Rain = 0
KEA1 151357Z 27006KT 00/M02 A2975 RMK A01 T00031018  RH  086%=      5-min Rain = 0
KEA1 151358Z 31006KT 00/M02 A2976 RMK A01 T00041019  RH  084%=      5-min Rain = 0
KEA1 151359Z 28004KT 00/M02 A2975 RMK A01 T00021022  RH  084%=      5-min Rain = 0
KEA1 151400Z 31003KT 00/M02 A2976 RMK A01 T00011022  RH  085%=      5-min Rain = 0
KEA1 151401Z 32005KT 00/M02 A2976 RMK A01 T00011022  RH  085%=      5-min Rain = 0
KEA1 151402Z 31005KT M00/M02 A2976 RMK A01 T10021024  RH  085%=      5-min Rain = 0
KEA1 151403Z 29005KT M00/M03 A2976 RMK A01 T10031026  RH  085%=      5-min Rain = 0
KEA1 151404Z 28002KT M00/M03 A2976 RMK A01 T10031026  RH  085%=      5-min Rain = 0
KEA1 151405Z 30003KT M00/M03 A2976 RMK A01 T10031025  RH  085%=      5-min Rain = 0
KEA1 151406Z 31005KT M00/M03 A2976 RMK A01 T10031025  RH  085%=      5-min Rain = 0
KEA1 151407Z 28004KT M00/M03 A2976 RMK A01 T10041026  RH  085%=      5-min Rain = 0
KEA1 151408Z 27004KT M00/M03 A2976 RMK A01 T10041026  RH  085%=      5-min Rain = 0
KEA1 151409Z 29004KT M00/M02 A2976 RMK A01 T10031024  RH  085%=      5-min Rain = 0
KEA1 151410Z 31005KT M00/M02 A2976 RMK A01 T10021024  RH  085%=      5-min Rain = 0
KEA1 151411Z 29004KT M00/M02 A2976 RMK A01 T10021024  RH  085%=      5-min Rain = 0
KEA1 151412Z 29005KT M00/M03 A2976 RMK A01 T10021025  RH  085%=      5-min Rain = 0
KEA1 151413Z 30005KT M00/M02 A2976 RMK A01 T10021024  RH  085%=      5-min Rain = 0
KEA1 151414Z 29006KT M00/M02 A2977 RMK A01 T10021024  RH  085%=      5-min Rain = 0
KEA1 151415Z 29007KT M00/M02 A2977 RMK A01 T10021022  RH  086%=      5-min Rain = 0
KEA1 151416Z 29006KT 00/02 A2977 RMK A01 T00000-20  RH  086%=      5-min Rain = 0
KEA1 151417Z 29007KT 00/M02 A2977 RMK A01 T00011019  RH  086%=      5-min Rain = 0
KEA1 151418Z 29008KT 00/M02 A2977 RMK A01 T00031018  RH  086%=      5-min Rain = 0
KEA1 151419Z 29008KT 01/M02 A2977 RMK A01 T00051018  RH  085%=      5-min Rain = 0
KEA1 151420Z 29007KT 01/M02 A2977 RMK A01 T00061017  RH  084%=      5-min Rain = 0
KEA1 151421Z 29006KT 01/M02 A2977 RMK A01 T00081017  RH  084%=      5-min Rain = 0
KEA1 151422Z 29007KT 01/M02 A2977 RMK A01 T00091016  RH  083%=      5-min Rain = 0
KEA1 151423Z 29007KT 01/M02 A2977 RMK A01 T00101016  RH  083%=      5-min Rain = 0
KEA1 151424Z 28006KT 01/M02 A2977 RMK A01 T00111016  RH  082%=      5-min Rain = 0
KEA1 151425Z 28005KT 01/M02 A2977 RMK A01 T00121015  RH  082%=      5-min Rain = 0
KEA1 151426Z 29007KT 01/M01 A2977 RMK A01 T00131014  RH  082%=      5-min Rain = 0
KEA1 151427Z 29006KT 01/M01 A2977 RMK A01 T00141014  RH  082%=      5-min Rain = 0
KEA1 151428Z 29006KT 01/M01 A2977 RMK A01 T00141014  RH  081%=      5-min Rain = 0
KEA1 151429Z 29007KT 02/M01 A2977 RMK A01 T00151014  RH  081%=      5-min Rain = 0
KEA1 151430Z 28008KT 02/M01 A2977 RMK A01 T00161014  RH  081%=      5-min Rain = 0
KEA1 151431Z 28007KT 02/M02 A2977 RMK A01 T00161015  RH  080%=      5-min Rain = 0
KEA1 151432Z 29008KT 02/M01 A2977 RMK A01 T00171013  RH  080%=      5-min Rain = 0
KEA1 151433Z 28006KT 02/M01 A2977 RMK A01 T00171013  RH  080%=      5-min Rain = 0
KEA1 151434Z 29006KT 02/M01 A2977 RMK A01 T00181014  RH  079%=      5-min Rain = 0
KEA1 151435Z 28007KT 02/M01 A2978 RMK A01 T00191013  RH  080%=      5-min Rain = 0
KEA1 151436Z 28005KT 02/M01 A2977 RMK A01 T00201012  RH  079%=      5-min Rain = 0
KEA1 151437Z 28006KT 02/M01 A2977 RMK A01 T00201012  RH  079%=      5-min Rain = 0
KEA1 151438Z 27006KT 02/M01 A2978 RMK A01 T00211013  RH  078%=      5-min Rain = 0
KEA1 151439Z 26005KT 02/M01 A2977 RMK A01 T00211013  RH  078%=      5-min Rain = 0
KEA1 151440Z 26005KT 02/M01 A2977 RMK A01 T00211013  RH  078%=      5-min Rain = 0
KEA1 151441Z 28007KT 02/M01 A2978 RMK A01 T00221012  RH  079%=      5-min Rain = 0
KEA1 151442Z 28006KT 02/M01 A2978 RMK A01 T00231011  RH  078%=      5-min Rain = 0
KEA1 151443Z 28006KT 02/M01 A2978 RMK A01 T00241011  RH  078%=      5-min Rain = 0
KEA1 151444Z 28006KT 02/M01 A2978 RMK A01 T00241010  RH  078%=      5-min Rain = 0
KEA1 151445Z 28005KT 03/M01 A2978 RMK A01 T00251009  RH  078%=      5-min Rain = 0
KEA1 151446Z 28006KT 03/M01 A2978 RMK A01 T00261009  RH  078%=      5-min Rain = 0
KEA1 151447Z 28005KT 03/M01 A2978 RMK A01 T00261009  RH  078%=      5-min Rain = 0
KEA1 151448Z 27007KT 03/M01 A2978 RMK A01 T00271008  RH  078%=      5-min Rain = 0
KEA1 151449Z 27006KT 03/M01 A2978 RMK A01 T00281007  RH  077%=      5-min Rain = 0
KEA1 151450Z 27007KT 03/M01 A2978 RMK A01 T00301006  RH  077%=      5-min Rain = 0
KEA1 151451Z 27007KT 03/M01 A2978 RMK A01 T00321006  RH  076%=      5-min Rain = 0
KEA1 151452Z 27006KT 03/M00 A2978 RMK A01 T00341004  RH  076%=      5-min Rain = 0
KEA1 151453Z 26006KT 04/M00 A2978 RMK A01 T00351003  RH  076%=      5-min Rain = 0
KEA1 151454Z 26006KT 04/M00 A2978 RMK A01 T00361003  RH  075%=      5-min Rain = 0
KEA1 151455Z 26007KT 04/M00 A2978 RMK A01 T00371004  RH  075%=      5-min Rain = 0
KEA1 151456Z 26007KT 04/M00 A2978 RMK A01 T00381004  RH  074%=      5-min Rain = 0
KEA1 151457Z 26007KT 04/M00 A2978 RMK A01 T00381004  RH  074%=      5-min Rain = 0
KEA1 151458Z 26007KT 04/M00 A2978 RMK A01 T00391002  RH  074%=      5-min Rain = 0
KEA1 151459Z 26007KT 04/M00 A2978 RMK A01 T00411001  RH  074%=      5-min Rain = 0
KEA1 151500Z 26007KT 04/M00 A2978 RMK A01 T00421001  RH  074%=      5-min Rain = 0
KEA1 151501Z 26007KT 04/M00 A2978 RMK A01 T00421001  RH  073%=      5-min Rain = 0
KEA1 151502Z 27007KT 04/00 A2979 RMK A01 T00430000  RH  073%=      5-min Rain = 0
KEA1 151503Z 27007KT 04/00 A2979 RMK A01 T00440001  RH  073%=      5-min Rain = 0
KEA1 151504Z 26007KT 05/00 A2979 RMK A01 T00450000  RH  073%=      5-min Rain = 0
KEA1 151505Z 27005KT 05/00 A2979 RMK A01 T00460002  RH  073%=      5-min Rain = 0
KEA1 151506Z 26007KT 05/00 A2979 RMK A01 T00480003  RH  072%=      5-min Rain = 0
KEA1 151507Z 27008KT 05/00 A2979 RMK A01 T00480001  RH  072%=      5-min Rain = 0
KEA1 151508Z 26008KT 05/00 A2979 RMK A01 T00490001  RH  071%=      5-min Rain = 0
KEA1 151509Z 27007KT 05/00 A2979 RMK A01 T00490002  RH  071%=      5-min Rain = 0
KEA1 151510Z 27007KT 05/00 A2979 RMK A01 T00500002  RH  072%=      5-min Rain = 0
KEA1 151511Z 26005KT 05/00 A2979 RMK A01 T00510004  RH  072%=      5-min Rain = 0
KEA1 151512Z 26006KT 05/01 A2979 RMK A01 T00530006  RH  072%=      5-min Rain = 0
KEA1 151513Z 26006KT 05/01 A2979 RMK A01 T00540006  RH  071%=      5-min Rain = 0
KEA1 151514Z 26006KT 06/01 A2979 RMK A01 T00550007  RH  071%=      5-min Rain = 0
KEA1 151515Z 26006KT 06/01 A2979 RMK A01 T00560007  RH  071%=      5-min Rain = 0
KEA1 151516Z 26006KT 06/01 A2979 RMK A01 T00560007  RH  070%=      5-min Rain = 0
KEA1 151517Z 26007KT 06/01 A2979 RMK A01 T00570008  RH  070%=      5-min Rain = 0
KEA1 151518Z 27006KT 06/01 A2979 RMK A01 T00590009  RH  070%=      5-min Rain = 0
KEA1 151519Z 26006KT 06/01 A2979 RMK A01 T00620012  RH  070%=      5-min Rain = 0
KEA1 151520Z 26006KT 06/01 A2979 RMK A01 T00630012  RH  069%=      5-min Rain = 0
KEA1 151521Z 26006KT 07/01 A2979 RMK A01 T00650012  RH  069%=      5-min Rain = 0
KEA1 151522Z 26007KT 07/01 A2979 RMK A01 T00650012  RH  069%=      5-min Rain = 0
KEA1 151523Z 26005KT 07/01 A2979 RMK A01 T00680014  RH  068%=      5-min Rain = 0
KEA1 151524Z 26007KT 07/01 A2979 RMK A01 T00700014  RH  067%=      5-min Rain = 0
KEA1 151525Z 26008KT 07/01 A2979 RMK A01 T00720014  RH  066%=      5-min Rain = 0
KEA1 151526Z 26007KT 07/01 A2979 RMK A01 T00740014  RH  066%=      5-min Rain = 0
KEA1 151527Z 26006KT 08/02 A2979 RMK A01 T00750015  RH  065%=      5-min Rain = 0
KEA1 151528Z 26006KT 08/02 A2979 RMK A01 T00770016  RH  065%=      5-min Rain = 0
KEA1 151529Z 26007KT 08/02 A2979 RMK A01 T00790016  RH  064%=      5-min Rain = 0
KEA1 151530Z 26007KT 08/02 A298 RMK A01 T00790015  RH  064%=      5-min Rain = 0
KEA1 151531Z 26007KT 08/02 A298 RMK A01 T00790015  RH  064%=      5-min Rain = 0
KEA1 151532Z 26006KT 08/02 A298 RMK A01 T00800016  RH  064%=      5-min Rain = 0
KEA1 151533Z 25006KT 08/02 A298 RMK A01 T00810017  RH  064%=      5-min Rain = 0
KEA1 151534Z 25007KT 08/02 A298 RMK A01 T00810017  RH  064%=      5-min Rain = 0
KEA1 151535Z 25007KT 08/02 A298 RMK A01 T00810017  RH  064%=      5-min Rain = 0
KEA1 151536Z 25007KT 08/02 A298 RMK A01 T00810017  RH  064%=      5-min Rain = 0
KEA1 151537Z 25006KT 08/02 A298 RMK A01 T00810017  RH  064%=      5-min Rain = 0
KEA1 151538Z 25006KT 08/02 A298 RMK A01 T00820017  RH  064%=      5-min Rain = 0
KEA1 151539Z 25006KT 08/02 A298 RMK A01 T00820017  RH  063%=      5-min Rain = 0
KEA1 151540Z 25007KT 08/02 A298 RMK A01 T00820017  RH  064%=      5-min Rain = 0
KEA1 151541Z 25007KT 08/02 A298 RMK A01 T00810017  RH  064%=      5-min Rain = 0
KEA1 151542Z 25007KT 08/02 A298 RMK A01 T00810017  RH  064%=      5-min Rain = 0
KEA1 151543Z 25007KT 08/02 A298 RMK A01 T00810017  RH  064%=      5-min Rain = 0
KEA1 151544Z 25007KT 08/02 A298 RMK A01 T00810017  RH  064%=      5-min Rain = 0
KEA1 151545Z 25007KT 08/02 A298 RMK A01 T00810017  RH  064%=      5-min Rain = 0
KEA1 151546Z 25007KT 08/02 A298 RMK A01 T00800017  RH  064%=      5-min Rain = 0
KEA1 151547Z 25007KT 08/02 A298 RMK A01 T00800017  RH  064%=      5-min Rain = 0
KEA1 151548Z 25007KT 08/02 A298 RMK A01 T00800017  RH  064%=      5-min Rain = 0
KEA1 151549Z 25007KT 08/02 A298 RMK A01 T00790017  RH  065%=      5-min Rain = 0
KEA1 151550Z 24007KT 08/02 A298 RMK A01 T00780016  RH  065%=      5-min Rain = 0
KEA1 151551Z 25007KT 08/02 A298 RMK A01 T00780017  RH  065%=      5-min Rain = 0
KEA1 151552Z 24007KT 08/02 A298 RMK A01 T00790017  RH  065%=      5-min Rain = 0
KEA1 151553Z 24007KT 08/02 A298 RMK A01 T00800018  RH  065%=      5-min Rain = 0
KEA1 151554Z 24006KT 08/02 A298 RMK A01 T00820019  RH  065%=      5-min Rain = 0
KEA1 151555Z 24007KT 08/02 A298 RMK A01 T00830020  RH  065%=      5-min Rain = 0
KEA1 151556Z 24006KT 09/02 A298 RMK A01 T00850021  RH  064%=      5-min Rain = 0
KEA1 151557Z 24007KT 09/02 A298 RMK A01 T00870022  RH  063%=      5-min Rain = 0
KEA1 151558Z 24008KT 09/02 A298 RMK A01 T00910022  RH  062%=      5-min Rain = 0
KEA1 151559Z 24008KT 09/02 A298 RMK A01 T00940021  RH  060%=      5-min Rain = 0
KEA1 151600Z 24008KT 10/02 A298 RMK A01 T00960021  RH  059%=      5-min Rain = 0
KEA1 151601Z 24009KT 10/02 A298 RMK A01 T00960020  RH  059%=      5-min Rain = 0
KEA1 151602Z 24008KT 10/02 A2981 RMK A01 T00970019  RH  059%=      5-min Rain = 0
KEA1 151603Z 24008KT 10/02 A2981 RMK A01 T00970019  RH  058%=      5-min Rain = 0
KEA1 151604Z 24008KT 10/02 A2981 RMK A01 T00980019  RH  058%=      5-min Rain = 0
KEA1 151605Z 24008KT 10/02 A2981 RMK A01 T00990019  RH  057%=      5-min Rain = 0
KEA1 151606Z 24008KT 10/02 A2981 RMK A01 T01010019  RH  057%=      5-min Rain = 0
KEA1 151607Z 24008KT 10/02 A2981 RMK A01 T01020019  RH  057%=      5-min Rain = 0
KEA1 151608Z 24008KT 10/02 A2981 RMK A01 T01030019  RH  056%=      5-min Rain = 0
KEA1 151609Z 24008KT 10/02 A2981 RMK A01 T01030020  RH  056%=      5-min Rain = 0
KEA1 151610Z 24008KT 10/02 A2981 RMK A01 T01030020  RH  056%=      5-min Rain = 0
KEA1 151611Z 24008KT 10/02 A2981 RMK A01 T01030020  RH  056%=      5-min Rain = 0
KEA1 151612Z 24008KT 10/02 A2981 RMK A01 T01030020  RH  056%=      5-min Rain = 0
KEA1 151613Z 24007KT 10/02 A2981 RMK A01 T01030020  RH  056%=      5-min Rain = 0
KEA1 151614Z 24008KT 11/02 A2981 RMK A01 T01060022  RH  056%=      5-min Rain = 0
KEA1 151615Z 23008KT 11/02 A2981 RMK A01 T01100024  RH  055%=      5-min Rain = 0
KEA1 151616Z 23007KT 12/02 A2981 RMK A01 T01150024  RH  054%=      5-min Rain = 0
KEA1 151617Z 23009KT 12/02 A2981 RMK A01 T01190022  RH  052%=      5-min Rain = 0
KEA1 151618Z 23009KT 12/02 A2981 RMK A01 T01220023  RH  051%=      5-min Rain = 0
KEA1 151619Z 23008KT 13/02 A2981 RMK A01 T01250023  RH  050%=      5-min Rain = 0
KEA1 151620Z 23009KT 13/02 A2981 RMK A01 T01270023  RH  049%=      5-min Rain = 0
KEA1 151621Z 23007KT 13/03 A2981 RMK A01 T01300025  RH  049%=      5-min Rain = 0
KEA1 151622Z 23007KT 13/03 A2981 RMK A01 T01320025  RH  048%=      5-min Rain = 0
KEA1 151623Z 23007KT 13/02 A2981 RMK A01 T01340023  RH  047%=      5-min Rain = 0
KEA1 151624Z 24008KT 13/02 A2982 RMK A01 T01340024  RH  047%=      5-min Rain = 0
KEA1 151625Z 24008KT 14/03 A2982 RMK A01 T01360025  RH  047%=      5-min Rain = 0
KEA1 151626Z 24007KT 14/02 A2982 RMK A01 T01360024  RH  047%=      5-min Rain = 0
KEA1 151627Z 26009KT 14/02 A2982 RMK A01 T01360024  RH  047%=      5-min Rain = 0
KEA1 151628Z 27011KT 14/02 A2982 RMK A01 T01410022  RH  044%=      5-min Rain = 0
KEA1 151629Z 26013KT 15/02 A2982 RMK A01 T01450019  RH  043%=      5-min Rain = 0
KEA1 151630Z 27012KT 15/02 A2982 RMK A01 T01450017  RH  042%=      5-min Rain = 0
KEA1 151631Z 27013KT 15/02 A2982 RMK A01 T01450016  RH  042%=      5-min Rain = 0
KEA1 151632Z 28011KT 15/02 A2982 RMK A01 T01450016  RH  042%=      5-min Rain = 0
KEA1 151633Z 29010KT 15/02 A2982 RMK A01 T01450018  RH  042%=      5-min Rain = 0
KEA1 151634Z 29010KT 15/02 A2982 RMK A01 T01460019  RH  042%=      5-min Rain = 0
KEA1 151635Z 31009KT 15/02 A2982 RMK A01 T01460019  RH  042%=      5-min Rain = 0
KEA1 151636Z 30011KT 15/02 A2982 RMK A01 T01480018  RH  042%=      5-min Rain = 0
KEA1 151637Z 29010G15KT 15/02 A2982 RMK A01 T01460017  RH  042%=      5-min Rain = 0
KEA1 151638Z 29012KT 15/02 A2982 RMK A01 T01470019  RH  042%=      5-min Rain = 0
KEA1 151639Z 27009KT 15/02 A2982 RMK A01 T01460016  RH  041%=      5-min Rain = 0
KEA1 151640Z 27011KT 15/02 A2982 RMK A01 T01460018  RH  042%=      5-min Rain = 0
KEA1 151641Z 28011KT 15/02 A2982 RMK A01 T01470019  RH  042%=      5-min Rain = 0
KEA1 151642Z 28009KT 15/02 A2982 RMK A01 T01480020  RH  042%=      5-min Rain = 0
KEA1 151643Z 30009KT 15/02 A2983 RMK A01 T01500019  RH  041%=      5-min Rain = 0
KEA1 151644Z 30012KT 15/02 A2983 RMK A01 T01490016  RH  041%=      5-min Rain = 0
KEA1 151645Z 31014KT 15/02 A2983 RMK A01 T01460017  RH  042%=      5-min Rain = 0
KEA1 151646Z 31013KT 15/02 A2983 RMK A01 T01450018  RH  042%=      5-min Rain = 0
KEA1 151647Z 32011KT 14/02 A2983 RMK A01 T01440019  RH  043%=      5-min Rain = 0
KEA1 151648Z 31011KT 15/02 A2983 RMK A01 T01450022  RH  043%=      5-min Rain = 0
KEA1 151649Z 31014KT 15/02 A2983 RMK A01 T01460020  RH  043%=      5-min Rain = 0
KEA1 151650Z 32015KT 14/02 A2983 RMK A01 T01420019  RH  043%=      5-min Rain = 0
KEA1 151651Z 32016KT 14/02 A2983 RMK A01 T01400019  RH  044%=      5-min Rain = 0
KEA1 151652Z 34018KT 14/02 A2983 RMK A01 T01360020  RH  045%=      5-min Rain = 0
KEA1 151653Z 36017KT 13/02 A2983 RMK A01 T01270019  RH  048%=      5-min Rain = 0
KEA1 151654Z 35015KT 12/02 A2983 RMK A01 T01190019  RH  050%=      5-min Rain = 0
KEA1 151655Z 00016KT 11/02 A2983 RMK A01 T01120017  RH  052%=      5-min Rain = 0
KEA1 151656Z 00016KT 11/02 A2983 RMK A01 T01060016  RH  054%=      5-min Rain = 0
KEA1 151657Z 36018KT 10/01 A2984 RMK A01 T01020014  RH  055%=      5-min Rain = 0
KEA1 151658Z 36018KT 10/01 A2983 RMK A01 T00960011  RH  055%=      5-min Rain = 0
KEA1 151659Z 35018KT 09/01 A2984 RMK A01 T00910009  RH  057%=      5-min Rain = 0
KEA1 151700Z 36020KT 09/01 A2983 RMK A01 T00860007  RH  058%=      5-min Rain = 0
KEA1 151701Z 36016KT 08/01 A2984 RMK A01 T00820005  RH  058%=      5-min Rain = 0
KEA1 151702Z 00015G20KT 08/01 A2984 RMK A01 T00790005  RH  059%=      5-min Rain = 0
KEA1 151703Z 36018KT 08/00 A2983 RMK A01 T00770004  RH  060%=      5-min Rain = 0
KEA1 151704Z 36020KT 07/00 A2983 RMK A01 T00720000  RH  060%=      5-min Rain = 0
KEA1 151705Z 36017KT 07/00 A2984 RMK A01 T006700-0  RH  062%=      5-min Rain = 0
KEA1 151706Z 35017KT 07/00 A2984 RMK A01 T00660000  RH  063%=      5-min Rain = 0
KEA1 151707Z 35018KT 07/00 A2984 RMK A01 T00660001  RH  063%=      5-min Rain = 0
KEA1 151708Z 35018KT 07/M00 A2984 RMK A01 T00651001  RH  063%=      5-min Rain = 0
KEA1 151709Z 35018KT 06/M00 A2984 RMK A01 T00621001  RH  064%=      5-min Rain = 0
KEA1 151710Z 35016KT 06/M00 A2984 RMK A01 T00611001  RH  065%=      5-min Rain = 0
KEA1 151711Z 36017KT 06/00 A2984 RMK A01 T00620000  RH  065%=      5-min Rain = 0
KEA1 151712Z 00018KT 06/M00 A2984 RMK A01 T00621001  RH  064%=      5-min Rain = 0
KEA1 151713Z 01017KT 06/M00 A2984 RMK A01 T00621001  RH  064%=      5-min Rain = 0
KEA1 151714Z 00017KT 06/M00 A2984 RMK A01 T00621001  RH  064%=      5-min Rain = 0
KEA1 151715Z 00017KT 06/M00 A2984 RMK A01 T00621001  RH  064%=      5-min Rain = 0
KEA1 151716Z 36016KT 06/M00 A2984 RMK A01 T00621001  RH  064%=      5-min Rain = 0
KEA1 151717Z 36013KT 06/00 A2984 RMK A01 T00620000  RH  065%=      5-min Rain = 0
KEA1 151718Z 00016KT 07/00 A2984 RMK A01 T00660002  RH  063%=      5-min Rain = 0
KEA1 151719Z 00016KT 06/M00 A2984 RMK A01 T00621003  RH  063%=      5-min Rain = 0
KEA1 151720Z 00013KT 06/M00 A2984 RMK A01 T00591002  RH  065%=      5-min Rain = 0
KEA1 151721Z 36014KT 06/00 A2984 RMK A01 T00610000  RH  065%=      5-min Rain = 0
KEA1 151722Z 35016KT 06/M00 A2984 RMK A01 T00631001  RH  064%=      5-min Rain = 0
KEA1 151723Z 35014KT 06/M00 A2984 RMK A01 T00601002  RH  064%=      5-min Rain = 0
KEA1 151724Z 35015KT 06/M00 A2984 RMK A01 T00591003  RH  065%=      5-min Rain = 0
KEA1 151725Z 35017KT 06/M00 A2984 RMK A01 T00561003  RH  066%=      5-min Rain = 0
KEA1 151726Z 00016KT 06/M00 A2984 RMK A01 T00551003  RH  066%=      5-min Rain = 0
KEA1 151727Z 36016KT 05/M00 A2984 RMK A01 T00541003  RH  067%=      5-min Rain = 0
KEA1 151728Z 01016KT 06/M00 A2984 RMK A01 T00551002  RH  067%=      5-min Rain = 0
KEA1 151729Z 36016KT 06/M00 A2984 RMK A01 T00561001  RH  067%=      5-min Rain = 0
KEA1 151730Z 00017KT 06/M00 A2984 RMK A01 T00561002  RH  066%=      5-min Rain = 0
KEA1 151731Z 35016KT 06/M00 A2984 RMK A01 T00551003  RH  067%=      5-min Rain = 0
KEA1 151732Z 35016KT 05/M00 A2984 RMK A01 T00541003  RH  067%=      5-min Rain = 0
KEA1 151733Z 35014KT 05/M00 A2984 RMK A01 T00531003  RH  067%=      5-min Rain = 0
KEA1 151734Z 36014KT 05/M00 A2984 RMK A01 T00531003  RH  067%=      5-min Rain = 0
KEA1 151735Z 36014KT 05/M00 A2984 RMK A01 T00541002  RH  067%=      5-min Rain = 0
KEA1 151736Z 35014KT 06/M00 A2984 RMK A01 T00561001  RH  067%=      5-min Rain = 0
KEA1 151737Z 01014KT 05/M00 A2984 RMK A01 T00541003  RH  067%=      5-min Rain = 0
KEA1 151738Z 01015KT 06/M00 A2984 RMK A01 T00561002  RH  067%=      5-min Rain = 0
KEA1 151739Z 01015KT 06/M00 A2984 RMK A01 T00571001  RH  066%=      5-min Rain = 0
KEA1 151740Z 36014KT 06/M00 A2984 RMK A01 T00571002  RH  066%=      5-min Rain = 0
KEA1 151741Z 00012KT 06/M00 A2984 RMK A01 T00561003  RH  066%=      5-min Rain = 0
KEA1 151742Z 36015KT 06/M00 A2984 RMK A01 T00571001  RH  066%=      5-min Rain = 0
KEA1 151743Z 00015KT 06/M00 A2984 RMK A01 T00581001  RH  066%=      5-min Rain = 0
KEA1 151744Z 01015KT 06/M00 A2984 RMK A01 T00571002  RH  066%=      5-min Rain = 0
KEA1 151745Z 36013KT 06/00 A2984 RMK A01 T005700-0  RH  066%=      5-min Rain = 0
KEA1 151746Z 00013KT 06/00 A2984 RMK A01 T00600001  RH  065%=      5-min Rain = 0
KEA1 151747Z 35015KT 06/00 A2984 RMK A01 T006100-0  RH  065%=      5-min Rain = 0
KEA1 151748Z 36015KT 06/M00 A2984 RMK A01 T00601001  RH  065%=      5-min Rain = 0
KEA1 151749Z 36015KT 06/M00 A2984 RMK A01 T00601001  RH  065%=      5-min Rain = 0
KEA1 151750Z 00014KT 06/M00 A2984 RMK A01 T00581002  RH  065%=      5-min Rain = 0
KEA1 151751Z 35015KT 06/M00 A2984 RMK A01 T00581002  RH  066%=      5-min Rain = 0
KEA1 151752Z 36015KT 06/M00 A2984 RMK A01 T00561003  RH  066%=      5-min Rain = 0
KEA1 151753Z 36015KT 06/M00 A2984 RMK A01 T00551002  RH  066%=      5-min Rain = 0
KEA1 151754Z 36014KT 06/M00 A2984 RMK A01 T00561002  RH  066%=      5-min Rain = 0
KEA1 151755Z 00016KT 06/M00 A2984 RMK A01 T00571002  RH  066%=      5-min Rain = 0
KEA1 151756Z 35015KT 05/M01 A2984 RMK A01 T00531005  RH  066%=      5-min Rain = 0
KEA1 151757Z 36015KT 05/M00 A2984 RMK A01 T00521003  RH  068%=      5-min Rain = 0
KEA1 151758Z 00015KT 05/M00 A2984 RMK A01 T00531003  RH  067%=      5-min Rain = 0
KEA1 151759Z 00013KT 05/M00 A2984 RMK A01 T00531002  RH  067%=      5-min Rain = 0
KEA1 151800Z 01014KT 06/M00 A2983 RMK A01 T00561001  RH  067%=      5-min Rain = 0
KEA1 151801Z 00014KT 06/M00 A2984 RMK A01 T00551003  RH  066%=      5-min Rain = 0
KEA1 151802Z 00013KT 06/M00 A2984 RMK A01 T00551002  RH  067%=      5-min Rain = 0
KEA1 151803Z 00013KT 06/M00 A2984 RMK A01 T00571001  RH  066%=      5-min Rain = 0
KEA1 151804Z 00015KT 06/00 A2984 RMK A01 T005900-0  RH  066%=      5-min Rain = 0
KEA1 151805Z 01017KT 06/M00 A2983 RMK A01 T00571002  RH  066%=      5-min Rain = 0
KEA1 151806Z 00017KT 05/M00 A2983 RMK A01 T00541003  RH  066%=      5-min Rain = 0
KEA1 151807Z 35018KT 05/M00 A2984 RMK A01 T00531004  RH  067%=      5-min Rain = 0
KEA1 151808Z 36017KT 05/M00 A2983 RMK A01 T00501004  RH  068%=      5-min Rain = 0
KEA1 151809Z 00017KT 05/M00 A2983 RMK A01 T00491004  RH  068%=      5-min Rain = 0
KEA1 151810Z 35015KT 05/M00 A2984 RMK A01 T00501003  RH  068%=      5-min Rain = 0
KEA1 151811Z 36015KT 05/M00 A2983 RMK A01 T00521003  RH  068%=      5-min Rain = 0
KEA1 151812Z 00015KT 05/M00 A2984 RMK A01 T00541003  RH  067%=      5-min Rain = 0
KEA1 151813Z 01017KT 05/M00 A2983 RMK A01 T00541003  RH  067%=      5-min Rain = 0
KEA1 151814Z 00017KT 05/M01 A2983 RMK A01 T00521005  RH  066%=      5-min Rain = 0
KEA1 151815Z 36017KT 05/M01 A2983 RMK A01 T00491005  RH  068%=      5-min Rain = 0
KEA1 151816Z 01017KT 05/M01 A2983 RMK A01 T00481005  RH  069%=      5-min Rain = 0
KEA1 151817Z 36014G19KT 05/M00 A2983 RMK A01 T00481004  RH  069%=      5-min Rain = 0
KEA1 151818Z 36017KT 05/M00 A2983 RMK A01 T00521003  RH  068%=      5-min Rain = 0
KEA1 151819Z 36016KT 05/M01 A2983 RMK A01 T00501005  RH  068%=      5-min Rain = 0
KEA1 151820Z 00016KT 05/M00 A2983 RMK A01 T00501004  RH  068%=      5-min Rain = 0
KEA1 151821Z 00017KT 05/M01 A2983 RMK A01 T00491005  RH  068%=      5-min Rain = 0
KEA1 151822Z 36015KT 05/M01 A2983 RMK A01 T00471006  RH  068%=      5-min Rain = 0
KEA1 151823Z 00015KT 05/M00 A2983 RMK A01 T00491002  RH  069%=      5-min Rain = 0
KEA1 151824Z 35015KT 05/M00 A2983 RMK A01 T00521003  RH  067%=      5-min Rain = 0
KEA1 151825Z 36015KT 05/M00 A2983 RMK A01 T00511004  RH  067%=      5-min Rain = 0
KEA1 151826Z 35015KT 05/M00 A2983 RMK A01 T00511004  RH  067%=      5-min Rain = 0
KEA1 151827Z 00015KT 05/M00 A2983 RMK A01 T00531004  RH  067%=      5-min Rain = 0
KEA1 151828Z 00015KT 05/M01 A2983 RMK A01 T00521005  RH  067%=      5-min Rain = 0
KEA1 151829Z 01015KT 05/M01 A2983 RMK A01 T00501007  RH  067%=      5-min Rain = 0
KEA1 151830Z 01015KT 05/M01 A2983 RMK A01 T00501005  RH  068%=      5-min Rain = 0
KEA1 151831Z 01017KT 05/M01 A2983 RMK A01 T00511005  RH  067%=      5-min Rain = 0
KEA1 151832Z 00018KT 05/M01 A2982 RMK A01 T00481007  RH  067%=      5-min Rain = 0
KEA1 151833Z 01015KT 05/M01 A2983 RMK A01 T00471006  RH  068%=      5-min Rain = 0
KEA1 151834Z 00015KT 05/M01 A2983 RMK A01 T00481005  RH  068%=      5-min Rain = 0
KEA1 151835Z 36015KT 05/M01 A2983 RMK A01 T00481006  RH  068%=      5-min Rain = 0
KEA1 151836Z 01014KT 05/M01 A2983 RMK A01 T00461006  RH  069%=      5-min Rain = 0
KEA1 151837Z 01013KT 05/M00 A2983 RMK A01 T00481003  RH  069%=      5-min Rain = 0
KEA1 151838Z 00012KT 05/M00 A2983 RMK A01 T00501004  RH  068%=      5-min Rain = 0
KEA1 151839Z 01012KT 05/M00 A2983 RMK A01 T00531001  RH  068%=      5-min Rain = 0
KEA1 151840Z 00012KT 06/M00 A2983 RMK A01 T00551003  RH  066%=      5-min Rain = 0
KEA1 151841Z 35013KT 05/M01 A2983 RMK A01 T00531005  RH  066%=      5-min Rain = 0
KEA1 151842Z 35012KT 05/M00 A2983 RMK A01 T00531004  RH  067%=      5-min Rain = 0
KEA1 151843Z 36013KT 05/M00 A2983 RMK A01 T00531004  RH  066%=      5-min Rain = 0
KEA1 151844Z 00011KT 05/M00 A2983 RMK A01 T00541003  RH  067%=      5-min Rain = 0
KEA1 151845Z 36013KT 06/M00 A2983 RMK A01 T00571001  RH  066%=      5-min Rain = 0
KEA1 151846Z 36014KT 06/M01 A2983 RMK A01 T00561005  RH  065%=      5-min Rain = 0
KEA1 151847Z 00014KT 05/M01 A2983 RMK A01 T00501007  RH  067%=      5-min Rain = 0
KEA1 151848Z 01011KT 05/M01 A2983 RMK A01 T00501005  RH  067%=      5-min Rain = 0
KEA1 151849Z 02015KT 05/M00 A2983 RMK A01 T00531003  RH  067%=      5-min Rain = 0
KEA1 151850Z 02014KT 05/M01 A2983 RMK A01 T00531005  RH  066%=      5-min Rain = 0
KEA1 151851Z 01013KT 05/M01 A2983 RMK A01 T00511005  RH  067%=      5-min Rain = 0
KEA1 151852Z 01014KT 05/M01 A2983 RMK A01 T00501005  RH  067%=      5-min Rain = 0
KEA1 151853Z 01012KT 05/M01 A2983 RMK A01 T00501005  RH  067%=      5-min Rain = 0
KEA1 151854Z 01013KT 05/M01 A2983 RMK A01 T00501005  RH  068%=      5-min Rain = 0
KEA1 151855Z 02014KT 05/M01 A2982 RMK A01 T00511005  RH  067%=      5-min Rain = 0
KEA1 151856Z 01014KT 05/M01 A2982 RMK A01 T00511006  RH  067%=      5-min Rain = 0
KEA1 151857Z 36012KT 05/M01 A2983 RMK A01 T00501006  RH  067%=      5-min Rain = 0
KEA1 151858Z 35011KT 05/M01 A2983 RMK A01 T00501006  RH  067%=      5-min Rain = 0
KEA1 151859Z 00011KT 05/M01 A2983 RMK A01 T00511005  RH  067%=      5-min Rain = 0
KEA1 151900Z 36012KT 06/M00 A2983 RMK A01 T00551003  RH  067%=      5-min Rain = 0
KEA1 151901Z 36014KT 06/M00 A2983 RMK A01 T00561004  RH  065%=      5-min Rain = 0
KEA1 151902Z 36013KT 05/M01 A2983 RMK A01 T00531007  RH  065%=      5-min Rain = 0
KEA1 151903Z 01011KT 05/M01 A2983 RMK A01 T00511006  RH  066%=      5-min Rain = 0
KEA1 151904Z 00013KT 05/M01 A2983 RMK A01 T00511005  RH  067%=      5-min Rain = 0
KEA1 151905Z 01013KT 05/M01 A2983 RMK A01 T00511005  RH  067%=      5-min Rain = 0
KEA1 151906Z 01012KT 06/M00 A2983 RMK A01 T00551002  RH  067%=      5-min Rain = 0
KEA1 151907Z 00012KT 06/M00 A2983 RMK A01 T00571003  RH  065%=      5-min Rain = 0
KEA1 151908Z 02015KT 06/M00 A2983 RMK A01 T00571003  RH  065%=      5-min Rain = 0
KEA1 151909Z 01013KT 05/M01 A2982 RMK A01 T00531007  RH  065%=      5-min Rain = 0
KEA1 151910Z 36012KT 05/M01 A2982 RMK A01 T00511007  RH  066%=      5-min Rain = 0
KEA1 151911Z 36012KT 05/M01 A2982 RMK A01 T00491007  RH  067%=      5-min Rain = 0
KEA1 151912Z 36012KT 05/M01 A2982 RMK A01 T00471008  RH  068%=      5-min Rain = 0
KEA1 151913Z 02011KT 05/M00 A2982 RMK A01 T00501003  RH  068%=      5-min Rain = 0
KEA1 151914Z 03013KT 05/M00 A2982 RMK A01 T00531004  RH  067%=      5-min Rain = 0
KEA1 151915Z 01013KT 05/M01 A2982 RMK A01 T00531005  RH  066%=      5-min Rain = 0
KEA1 151916Z 02011KT 05/M01 A2982 RMK A01 T00531005  RH  066%=      5-min Rain = 0
KEA1 151917Z 02011KT 06/M00 A2982 RMK A01 T00551004  RH  066%=      5-min Rain = 0
KEA1 151918Z 03014KT 05/M01 A2982 RMK A01 T00531006  RH  066%=      5-min Rain = 0
KEA1 151919Z 03013KT 05/M01 A2982 RMK A01 T00501007  RH  067%=      5-min Rain = 0
KEA1 151920Z 02013KT 05/M01 A2982 RMK A01 T00491006  RH  068%=      5-min Rain = 0
KEA1 151921Z 02014KT 05/M01 A2982 RMK A01 T00491006  RH  068%=      5-min Rain = 0
KEA1 151922Z 01014KT 05/M01 A2982 RMK A01 T00491006  RH  068%=      5-min Rain = 0
KEA1 151923Z 01013KT 05/M01 A2982 RMK A01 T00501006  RH  067%=      5-min Rain = 0
KEA1 151924Z 01013KT 05/M01 A2982 RMK A01 T00481007  RH  068%=      5-min Rain = 0
KEA1 151925Z 01014KT 05/M01 A2982 RMK A01 T00491005  RH  068%=      5-min Rain = 0
KEA1 151926Z 01015KT 05/M01 A2982 RMK A01 T00471007  RH  068%=      5-min Rain = 0
KEA1 151927Z 02014KT 05/M01 A2982 RMK A01 T00471007  RH  068%=      5-min Rain = 0
KEA1 151928Z 02015KT 05/M01 A2982 RMK A01 T00471006  RH  068%=      5-min Rain = 0
KEA1 151929Z 02013KT 05/M01 A2982 RMK A01 T00471007  RH  068%=      5-min Rain = 0
KEA1 151930Z 02013KT 05/M01 A2982 RMK A01 T00471007  RH  068%=      5-min Rain = 0
KEA1 151931Z 01015KT 05/M01 A2982 RMK A01 T00471006  RH  068%=      5-min Rain = 0
KEA1 151932Z 01015KT 05/M01 A2982 RMK A01 T00481007  RH  068%=      5-min Rain = 0
KEA1 151933Z 01013KT 05/M01 A2982 RMK A01 T00461008  RH  068%=      5-min Rain = 0
KEA1 151934Z 01013KT 05/M01 A2982 RMK A01 T00481006  RH  068%=      5-min Rain = 0
KEA1 151935Z 03013KT 05/M01 A2982 RMK A01 T00501006  RH  067%=      5-min Rain = 0
KEA1 151936Z 02013KT 05/M01 A2982 RMK A01 T00511006  RH  067%=      5-min Rain = 0
KEA1 151937Z 03013KT 05/M01 A2982 RMK A01 T00511006  RH  067%=      5-min Rain = 0
KEA1 151938Z 02014KT 05/M01 A2982 RMK A01 T00501006  RH  067%=      5-min Rain = 0
KEA1 151939Z 01013KT 05/M01 A2982 RMK A01 T00501006  RH  067%=      5-min Rain = 0
KEA1 151940Z 02015KT 05/M01 A2981 RMK A01 T00511006  RH  067%=      5-min Rain = 0
KEA1 151941Z 02016KT 05/M01 A2981 RMK A01 T00491007  RH  067%=      5-min Rain = 0
KEA1 151942Z 02016KT 05/M01 A2981 RMK A01 T00481008  RH  067%=      5-min Rain = 0
KEA1 151943Z 02015KT 05/M01 A2981 RMK A01 T00461008  RH  068%=      5-min Rain = 0
KEA1 151944Z 02013KT 05/M01 A2981 RMK A01 T00461007  RH  068%=      5-min Rain = 0
KEA1 151945Z 01015KT 05/M01 A2981 RMK A01 T00501005  RH  068%=      5-min Rain = 0
KEA1 151946Z 01015KT 05/M01 A2981 RMK A01 T00491008  RH  067%=      5-min Rain = 0
KEA1 151947Z 01015KT 05/M01 A2981 RMK A01 T00471008  RH  067%=      5-min Rain = 0
KEA1 151948Z 01015KT 05/M01 A2981 RMK A01 T00471008  RH  068%=      5-min Rain = 0
KEA1 151949Z 01016KT 05/M01 A2981 RMK A01 T00481008  RH  067%=      5-min Rain = 0
KEA1 151950Z 00014KT 05/M01 A2981 RMK A01 T00471008  RH  067%=      5-min Rain = 0
KEA1 151951Z 02012KT 05/M01 A2981 RMK A01 T00471008  RH  068%=      5-min Rain = 0
KEA1 151952Z 02012KT 05/M01 A2981 RMK A01 T00471007  RH  068%=      5-min Rain = 0
KEA1 151953Z 01013KT 05/M01 A2981 RMK A01 T00501005  RH  068%=      5-min Rain = 0
KEA1 151954Z 01015KT 05/M00 A2981 RMK A01 T00531004  RH  067%=      5-min Rain = 0
KEA1 151955Z 01014KT 05/M01 A2981 RMK A01 T00521007  RH  066%=      5-min Rain = 0
KEA1 151956Z 01015KT 05/M01 A2981 RMK A01 T00541005  RH  066%=      5-min Rain = 0
KEA1 151957Z 01016KT 05/M01 A2981 RMK A01 T00521008  RH  065%=      5-min Rain = 0
KEA1 151958Z 03016KT 05/M01 A2981 RMK A01 T00481010  RH  066%=      5-min Rain = 0
KEA1 151959Z 01013KT 05/M01 A2981 RMK A01 T00471009  RH  067%=      5-min Rain = 0
KEA1 152000Z 01011KT 05/M01 A2981 RMK A01 T00461009  RH  067%=      5-min Rain = 0
KEA1 152001Z 02015KT 05/M01 A2981 RMK A01 T00481008  RH  067%=      5-min Rain = 0
KEA1 152002Z 02016KT 05/M01 A2981 RMK A01 T00471009  RH  067%=      5-min Rain = 0
KEA1 152003Z 01014G19KT 05/M01 A2981 RMK A01 T00461008  RH  068%=      5-min Rain = 0
KEA1 152004Z 01017KT 05/M01 A2981 RMK A01 T00471009  RH  067%=      5-min Rain = 0
KEA1 152005Z 01015KT 05/M01 A2981 RMK A01 T00451010  RH  068%=      5-min Rain = 0
KEA1 152006Z 02014KT 04/M01 A2981 RMK A01 T00441010  RH  068%=      5-min Rain = 0
KEA1 152007Z 01014KT 05/M01 A2981 RMK A01 T00451008  RH  068%=      5-min Rain = 0
KEA1 152008Z 01017KT 05/M01 A2981 RMK A01 T00461009  RH  067%=      5-min Rain = 0
KEA1 152009Z 02015KT 05/M01 A2981 RMK A01 T00451009  RH  068%=      5-min Rain = 0
KEA1 152010Z 02013KT 05/M01 A2981 RMK A01 T00461009  RH  067%=      5-min Rain = 0
KEA1 152011Z 01016KT 05/M01 A2981 RMK A01 T00481008  RH  067%=      5-min Rain = 0
KEA1 152012Z 01018KT 05/M01 A2981 RMK A01 T00491009  RH  066%=      5-min Rain = 0
KEA1 152013Z 02015KT 05/M01 A2981 RMK A01 T00451012  RH  067%=      5-min Rain = 0
KEA1 152014Z 01014G19KT 04/M01 A2981 RMK A01 T00421011  RH  068%=      5-min Rain = 0
KEA1 152015Z 01017KT 05/M01 A2981 RMK A01 T00451009  RH  068%=      5-min Rain = 0
KEA1 152016Z 01014KT 05/M01 A2981 RMK A01 T00451010  RH  067%=      5-min Rain = 0
KEA1 152017Z 00014KT 04/M01 A2981 RMK A01 T00441010  RH  068%=      5-min Rain = 0
KEA1 152018Z 02011KT 05/M01 A2981 RMK A01 T00451009  RH  068%=      5-min Rain = 0
KEA1 152019Z 36014KT 05/M01 A2981 RMK A01 T00471009  RH  067%=      5-min Rain = 0
KEA1 152020Z 01015KT 05/M01 A2981 RMK A01 T00471009  RH  067%=      5-min Rain = 0
KEA1 152021Z 01016KT 05/M01 A2981 RMK A01 T00471010  RH  067%=      5-min Rain = 0
KEA1 152022Z 01016KT 05/M01 A2981 RMK A01 T00471010  RH  067%=      5-min Rain = 0
KEA1 152023Z 01013KT 05/M01 A2981 RMK A01 T00471009  RH  067%=      5-min Rain = 0
KEA1 152024Z 01013KT 05/M01 A2981 RMK A01 T00491008  RH  066%=      5-min Rain = 0
KEA1 152025Z 02013KT 05/M01 A2981 RMK A01 T00491009  RH  066%=      5-min Rain = 0
KEA1 152026Z 01013KT 05/M01 A2981 RMK A01 T00491009  RH  066%=      5-min Rain = 0
KEA1 152027Z 02017KT 05/M01 A2981 RMK A01 T00501008  RH  066%=      5-min Rain = 0
KEA1 152028Z 03014KT 05/M01 A2981 RMK A01 T00481010  RH  066%=      5-min Rain = 0
KEA1 152029Z 03017KT 05/M01 A298 RMK A01 T00461011  RH  067%=      5-min Rain = 0
KEA1 152030Z 03016KT 05/M01 A298 RMK A01 T00451011  RH  067%=      5-min Rain = 0
KEA1 152031Z 03015KT 04/M01 A298 RMK A01 T00441011  RH  068%=      5-min Rain = 0
KEA1 152032Z 02013KT 04/M01 A298 RMK A01 T00431011  RH  068%=      5-min Rain = 0
KEA1 152033Z 02016KT 05/M01 A298 RMK A01 T00451009  RH  068%=      5-min Rain = 0
KEA1 152034Z 02015KT 05/M01 A298 RMK A01 T00451011  RH  067%=      5-min Rain = 0
KEA1 152035Z 02017KT 04/M01 A298 RMK A01 T00441011  RH  068%=      5-min Rain = 0
KEA1 152036Z 01013KT 04/M01 A2981 RMK A01 T00441011  RH  068%=      5-min Rain = 0
KEA1 152037Z 02012KT 05/M01 A2981 RMK A01 T00451010  RH  068%=      5-min Rain = 0
KEA1 152038Z 02013KT 05/M01 A2981 RMK A01 T00461010  RH  067%=      5-min Rain = 0
KEA1 152039Z 01012KT 05/M01 A2981 RMK A01 T00461010  RH  067%=      5-min Rain = 0
KEA1 152040Z 01013KT 05/M01 A298 RMK A01 T00481009  RH  066%=      5-min Rain = 0
KEA1 152041Z 01017KT 05/M01 A298 RMK A01 T00481010  RH  066%=      5-min Rain = 0
KEA1 152042Z 01016KT 05/M01 A298 RMK A01 T00461012  RH  066%=      5-min Rain = 0
KEA1 152043Z 02017KT 05/M01 A298 RMK A01 T00451012  RH  066%=      5-min Rain = 0
KEA1 152044Z 01017KT 04/M01 A298 RMK A01 T00441012  RH  067%=      5-min Rain = 0
KEA1 152045Z 02016KT 04/M01 A298 RMK A01 T00441012  RH  067%=      5-min Rain = 0
KEA1 152046Z 00013KT 04/M01 A298 RMK A01 T00441012  RH  067%=      5-min Rain = 0
KEA1 152047Z 00015KT 05/M01 A298 RMK A01 T00471011  RH  066%=      5-min Rain = 0
KEA1 152048Z 01016KT 05/M01 A298 RMK A01 T00471012  RH  065%=      5-min Rain = 0
KEA1 152049Z 02014KT 05/M01 A298 RMK A01 T00471013  RH  065%=      5-min Rain = 0
KEA1 152050Z 00012KT 05/M01 A298 RMK A01 T00481011  RH  066%=      5-min Rain = 0
KEA1 152051Z 00014KT 05/M01 A298 RMK A01 T00501011  RH  065%=      5-min Rain = 0
KEA1 152052Z 00016KT 05/M01 A298 RMK A01 T00501012  RH  064%=      5-min Rain = 0
KEA1 152053Z 01016KT 05/M01 A298 RMK A01 T00471014  RH  065%=      5-min Rain = 0
KEA1 152054Z 02016KT 05/M01 A298 RMK A01 T00461013  RH  065%=      5-min Rain = 0
KEA1 152055Z 02015KT 05/M01 A298 RMK A01 T00461013  RH  065%=      5-min Rain = 0
KEA1 152056Z 01016KT 05/M01 A298 RMK A01 T00451014  RH  066%=      5-min Rain = 0
KEA1 152057Z 01017KT 04/M02 A298 RMK A01 T00421015  RH  066%=      5-min Rain = 0
KEA1 152058Z 01013KT 04/M01 A298 RMK A01 T00421014  RH  067%=      5-min Rain = 0
KEA1 152059Z 01015KT 04/M01 A298 RMK A01 T00431014  RH  066%=      5-min Rain = 0
KEA1 152100Z 02013KT 04/M01 A298 RMK A01 T00431014  RH  066%=      5-min Rain = 0
KEA1 152101Z 01016KT 04/M02 A298 RMK A01 T00431015  RH  066%=      5-min Rain = 0
KEA1 152102Z 01015KT 04/M02 A2979 RMK A01 T00421015  RH  066%=      5-min Rain = 0
KEA1 152103Z 01013KT 04/M01 A2979 RMK A01 T00431014  RH  066%=      5-min Rain = 0
KEA1 152104Z 01015KT 05/M01 A2979 RMK A01 T00451014  RH  065%=      5-min Rain = 0
KEA1 152105Z 01014KT 05/M02 A2979 RMK A01 T00451015  RH  065%=      5-min Rain = 0
KEA1 152106Z 02016KT 05/M02 A2979 RMK A01 T00451015  RH  065%=      5-min Rain = 0
KEA1 152107Z 02017KT 04/M02 A2979 RMK A01 T00431016  RH  066%=      5-min Rain = 0
KEA1 152108Z 01016KT 04/M02 A2979 RMK A01 T00421016  RH  066%=      5-min Rain = 0
KEA1 152109Z 02015KT 04/M02 A2979 RMK A01 T00431015  RH  066%=      5-min Rain = 0
KEA1 152110Z 02016KT 04/M02 A2979 RMK A01 T00431015  RH  066%=      5-min Rain = 0
KEA1 152111Z 02015KT 04/M02 A2979 RMK A01 T00421016  RH  066%=      5-min Rain = 0
KEA1 152112Z 02016KT 04/M02 A2979 RMK A01 T00431015  RH  066%=      5-min Rain = 0
KEA1 152113Z 02014KT 04/M02 A2979 RMK A01 T00431016  RH  066%=      5-min Rain = 0
KEA1 152114Z 02012G17KT 04/M02 A2979 RMK A01 T00441015  RH  066%=      5-min Rain = 0
KEA1 152115Z 02018KT 05/M01 A2979 RMK A01 T00471014  RH  065%=      5-min Rain = 0
KEA1 152116Z 02015KT 05/M02 A2979 RMK A01 T00451016  RH  064%=      5-min Rain = 0
KEA1 152117Z 02015KT 04/M02 A2979 RMK A01 T00441016  RH  065%=      5-min Rain = 0
KEA1 152118Z 02017KT 05/M02 A2979 RMK A01 T00451015  RH  065%=      5-min Rain = 0
KEA1 152119Z 02017KT 05/M02 A2979 RMK A01 T00451015  RH  065%=      5-min Rain = 0
KEA1 152120Z 02016KT 05/M02 A2979 RMK A01 T00451016  RH  065%=      5-min Rain = 0
KEA1 152121Z 03016KT 05/M02 A2979 RMK A01 T00451016  RH  065%=      5-min Rain = 0
KEA1 152122Z 02017KT 04/M02 A2979 RMK A01 T00431016  RH  065%=      5-min Rain = 0
KEA1 152123Z 01017KT 04/M02 A2979 RMK A01 T00431016  RH  065%=      5-min Rain = 0
KEA1 152124Z 02016KT 04/M02 A2979 RMK A01 T00441016  RH  065%=      5-min Rain = 0
KEA1 152125Z 02015KT 04/M02 A2979 RMK A01 T00441016  RH  065%=      5-min Rain = 0
KEA1 152126Z 01015KT 04/M02 A2979 RMK A01 T00441016  RH  065%=      5-min Rain = 0
KEA1 152127Z 02016KT 05/M02 A2979 RMK A01 T00451016  RH  064%=      5-min Rain = 0
KEA1 152128Z 02015KT 04/M02 A2979 RMK A01 T00441017  RH  065%=      5-min Rain = 0
KEA1 152129Z 02015KT 04/M02 A2979 RMK A01 T00431017  RH  065%=      5-min Rain = 0
KEA1 152130Z 02014KT 04/M02 A2979 RMK A01 T00421017  RH  065%=      5-min Rain = 0
KEA1 152131Z 02014KT 04/M02 A2979 RMK A01 T00431017  RH  065%=      5-min Rain = 0
KEA1 152132Z 01017KT 04/M02 A2979 RMK A01 T00431017  RH  065%=      5-min Rain = 0
KEA1 152133Z 00016KT 04/M02 A2979 RMK A01 T00441017  RH  065%=      5-min Rain = 0
KEA1 152134Z 01014KT 04/M02 A2979 RMK A01 T00421018  RH  065%=      5-min Rain = 0
KEA1 152135Z 01013KT 04/M02 A2979 RMK A01 T00421017  RH  065%=      5-min Rain = 0
KEA1 152136Z 02014KT 04/M02 A2979 RMK A01 T00431017  RH  065%=      5-min Rain = 0
KEA1 152137Z 02012KT 05/M02 A2979 RMK A01 T00451016  RH  065%=      5-min Rain = 0
KEA1 152138Z 02013KT 05/M02 A2979 RMK A01 T00471016  RH  064%=      5-min Rain = 0
KEA1 152139Z 02011KT 05/M02 A2979 RMK A01 T00461017  RH  064%=      5-min Rain = 0
KEA1 152140Z 02015KT 05/M02 A2979 RMK A01 T00471016  RH  064%=      5-min Rain = 0
KEA1 152141Z 03013G19KT 05/M02 A2979 RMK A01 T00471016  RH  064%=      5-min Rain = 0
KEA1 152142Z 03017KT 05/M02 A2979 RMK A01 T00461017  RH  064%=      5-min Rain = 0
KEA1 152143Z 03016KT 04/M02 A2979 RMK A01 T00421019  RH  064%=      5-min Rain = 0
KEA1 152144Z 02015KT 04/M02 A2979 RMK A01 T00411018  RH  065%=      5-min Rain = 0
KEA1 152145Z 02014KT 04/M02 A2979 RMK A01 T00411017  RH  066%=      5-min Rain = 0
KEA1 152146Z 02014KT 04/M02 A2979 RMK A01 T00431017  RH  065%=      5-min Rain = 0
KEA1 152147Z 03015KT 04/M02 A2979 RMK A01 T00431017  RH  065%=      5-min Rain = 0
KEA1 152148Z 02017KT 04/M02 A2979 RMK A01 T00441018  RH  064%=      5-min Rain = 0
KEA1 152149Z 02015KT 04/M02 A2979 RMK A01 T00431018  RH  065%=      5-min Rain = 0
KEA1 152150Z 02013KT 04/M02 A2979 RMK A01 T00421018  RH  065%=      5-min Rain = 0
KEA1 152151Z 01013KT 04/M02 A2979 RMK A01 T00431017  RH  065%=      5-min Rain = 0
KEA1 152152Z 02015KT 04/M02 A2979 RMK A01 T00441017  RH  064%=      5-min Rain = 0
KEA1 152153Z 02014G19KT 04/M02 A2979 RMK A01 T00431018  RH  064%=      5-min Rain = 0
KEA1 152154Z 01015KT 04/M02 A2979 RMK A01 T00431017  RH  065%=      5-min Rain = 0
KEA1 152155Z 02016KT 04/M02 A2979 RMK A01 T00431017  RH  065%=      5-min Rain = 0
KEA1 152156Z 03015KT 04/M02 A2979 RMK A01 T00421017  RH  065%=      5-min Rain = 0
KEA1 152157Z 03015KT 04/M02 A2979 RMK A01 T00421017  RH  065%=      5-min Rain = 0
KEA1 152158Z 03012KT 04/M02 A2979 RMK A01 T00411017  RH  066%=      5-min Rain = 0
KEA1 152159Z 02015KT 04/M02 A2979 RMK A01 T00431017  RH  065%=      5-min Rain = 0
KEA1 152200Z 02015KT 04/M02 A2979 RMK A01 T00421019  RH  065%=      5-min Rain = 0
KEA1 152201Z 02014KT 04/M02 A2979 RMK A01 T00401020  RH  065%=      5-min Rain = 0
KEA1 152202Z 02015KT 04/M02 A2979 RMK A01 T00401019  RH  066%=      5-min Rain = 0
KEA1 152203Z 02015KT 04/M02 A2979 RMK A01 T00391019  RH  065%=      5-min Rain = 0
KEA1 152204Z 02014KT 04/M02 A2979 RMK A01 T00391019  RH  066%=      5-min Rain = 0
KEA1 152205Z 03015KT 04/M02 A2979 RMK A01 T00401019  RH  066%=      5-min Rain = 0
KEA1 152206Z 02013KT 04/M02 A298 RMK A01 T00391019  RH  066%=      5-min Rain = 0
KEA1 152207Z 02013KT 04/M02 A298 RMK A01 T00401018  RH  066%=      5-min Rain = 0
KEA1 152208Z 02015KT 04/M02 A298 RMK A01 T00411018  RH  065%=      5-min Rain = 0
KEA1 152209Z 02015KT 04/M02 A298 RMK A01 T00411019  RH  065%=      5-min Rain = 0
KEA1 152210Z 02012KT 04/M02 A298 RMK A01 T00391020  RH  065%=      5-min Rain = 0
KEA1 152211Z 01012KT 04/M02 A298 RMK A01 T00391019  RH  066%=      5-min Rain = 0
KEA1 152212Z 02011KT 04/M02 A298 RMK A01 T00411018  RH  065%=      5-min Rain = 0
KEA1 152213Z 02013KT 04/M02 A298 RMK A01 T00421018  RH  065%=      5-min Rain = 0
KEA1 152214Z 03013KT 04/M02 A298 RMK A01 T00431018  RH  064%=      5-min Rain = 0
KEA1 152215Z 03015KT 04/M02 A298 RMK A01 T00421019  RH  065%=      5-min Rain = 0
KEA1 152216Z 03014KT 04/M02 A298 RMK A01 T00401020  RH  065%=      5-min Rain = 0
KEA1 152217Z 04014KT 04/M02 A298 RMK A01 T00391020  RH  066%=      5-min Rain = 0
KEA1 152218Z 04013KT 04/M02 A298 RMK A01 T00391019  RH  066%=      5-min Rain = 0
KEA1 152219Z 03012KT 04/M02 A298 RMK A01 T00401020  RH  065%=      5-min Rain = 0
KEA1 152220Z 02013KT 04/M02 A298 RMK A01 T00401020  RH  065%=      5-min Rain = 0
KEA1 152221Z 02013KT 04/M02 A298 RMK A01 T00401020  RH  065%=      5-min Rain = 0
KEA1 152222Z 02015KT 04/M02 A298 RMK A01 T00401020  RH  065%=      5-min Rain = 0
KEA1 152223Z 02015KT 04/M02 A298 RMK A01 T00391020  RH  065%=      5-min Rain = 0
KEA1 152224Z 03013KT 04/M02 A298 RMK A01 T00391020  RH  065%=      5-min Rain = 0
KEA1 152225Z 03016KT 04/M02 A298 RMK A01 T00401020  RH  065%=      5-min Rain = 0
KEA1 152226Z 03013KT 04/M02 A298 RMK A01 T00391020  RH  065%=      5-min Rain = 0
KEA1 152227Z 04012KT 04/M02 A298 RMK A01 T00391020  RH  065%=      5-min Rain = 0
KEA1 152228Z 04012KT 04/M02 A298 RMK A01 T00401020  RH  065%=      5-min Rain = 0
KEA1 152229Z 04015KT 04/M02 A298 RMK A01 T00401021  RH  065%=      5-min Rain = 0
KEA1 152230Z 03013KT 04/M02 A298 RMK A01 T00381021  RH  065%=      5-min Rain = 0
KEA1 152231Z 03013KT 04/M02 A298 RMK A01 T00381020  RH  066%=      5-min Rain = 0
KEA1 152232Z 03015KT 04/M02 A298 RMK A01 T00371021  RH  066%=      5-min Rain = 0
KEA1 152233Z 03013KT 04/M02 A298 RMK A01 T00371021  RH  066%=      5-min Rain = 0
KEA1 152234Z 03011KT 04/M02 A298 RMK A01 T00371021  RH  066%=      5-min Rain = 0
KEA1 152235Z 03011KT 04/M02 A298 RMK A01 T00381020  RH  066%=      5-min Rain = 0
KEA1 152236Z 02013KT 04/M02 A298 RMK A01 T00391020  RH  065%=      5-min Rain = 0
KEA1 152237Z 03015KT 04/M02 A298 RMK A01 T00391020  RH  065%=      5-min Rain = 0
KEA1 152238Z 03014KT 04/M02 A298 RMK A01 T00371021  RH  065%=      5-min Rain = 0
KEA1 152239Z 03017KT 04/M02 A298 RMK A01 T00351022  RH  066%=      5-min Rain = 0
KEA1 152240Z 03017KT 04/M02 A298 RMK A01 T00351022  RH  066%=      5-min Rain = 0
KEA1 152241Z 02015KT 03/M02 A298 RMK A01 T00341022  RH  067%=      5-min Rain = 0
KEA1 152242Z 02016KT 03/M02 A298 RMK A01 T00331022  RH  067%=      5-min Rain = 0
KEA1 152243Z 02016KT 03/M02 A298 RMK A01 T00321023  RH  067%=      5-min Rain = 0
KEA1 152244Z 02015KT 03/M02 A298 RMK A01 T00311024  RH  067%=      5-min Rain = 0
KEA1 152245Z 02016KT 03/M02 A298 RMK A01 T00301024  RH  068%=      5-min Rain = 0
KEA1 152246Z 02014KT 03/M02 A298 RMK A01 T00301024  RH  068%=      5-min Rain = 0
KEA1 152247Z 02013KT 03/M02 A298 RMK A01 T00301023  RH  068%=      5-min Rain = 0
KEA1 152248Z 03015KT 03/M02 A298 RMK A01 T00301023  RH  068%=      5-min Rain = 0
KEA1 152249Z 03014KT 03/M02 A298 RMK A01 T00291024  RH  068%=      5-min Rain = 0
KEA1 152250Z 03013KT 03/M02 A298 RMK A01 T00291024  RH  068%=      5-min Rain = 0
KEA1 152251Z 03013KT 03/M02 A2981 RMK A01 T00281024  RH  068%=      5-min Rain = 0
KEA1 152252Z 02014KT 03/M02 A2981 RMK A01 T00281024  RH  069%=      5-min Rain = 0
KEA1 152253Z 03013KT 03/M02 A298 RMK A01 T00281024  RH  069%=      5-min Rain = 0
KEA1 152254Z 02013KT 03/M02 A2981 RMK A01 T00281024  RH  069%=      5-min Rain = 0
KEA1 152255Z 02012KT 03/M02 A2981 RMK A01 T00281023  RH  069%=      5-min Rain = 0
KEA1 152256Z 02013KT 03/M02 A2981 RMK A01 T00281023  RH  069%=      5-min Rain = 0
KEA1 152257Z 02013KT 03/M02 A2981 RMK A01 T00281023  RH  069%=      5-min Rain = 0
KEA1 152258Z 02013KT 03/M02 A2981 RMK A01 T00281023  RH  069%=      5-min Rain = 0
KEA1 152259Z 02012KT 03/M02 A2981 RMK A01 T00281024  RH  069%=      5-min Rain = 0
KEA1 152300Z 02013KT 03/M02 A2981 RMK A01 T00271024  RH  069%=      5-min Rain = 0
KEA1 152301Z 02015KT 03/M02 A2981 RMK A01 T00271024  RH  069%=      5-min Rain = 0
KEA1 152302Z 02015KT 03/M03 A2981 RMK A01 T00261025  RH  069%=      5-min Rain = 0
KEA1 152303Z 03013KT 03/M03 A2982 RMK A01 T00251025  RH  070%=      5-min Rain = 0
KEA1 152304Z 02012KT 03/M03 A2982 RMK A01 T00251025  RH  070%=      5-min Rain = 0
KEA1 152305Z 03011KT 03/M03 A2982 RMK A01 T00251025  RH  070%=      5-min Rain = 0
KEA1 152306Z 02013KT 03/M03 A2982 RMK A01 T00251025  RH  070%=      5-min Rain = 0
KEA1 152307Z 02013KT 02/M03 A2982 RMK A01 T00241025  RH  070%=      5-min Rain = 0
KEA1 152308Z 03013KT 02/M03 A2982 RMK A01 T00241025  RH  070%=      5-min Rain = 0
KEA1 152309Z 03013KT 02/M03 A2982 RMK A01 T00231025  RH  070%=      5-min Rain = 0
KEA1 152310Z 03012KT 02/M03 A2982 RMK A01 T00221026  RH  071%=      5-min Rain = 0
KEA1 152311Z 03011KT 02/M03 A2982 RMK A01 T00221026  RH  071%=      5-min Rain = 0
KEA1 152312Z 04011KT 02/M03 A2982 RMK A01 T00211026  RH  071%=      5-min Rain = 0
KEA1 152313Z 04011KT 02/M03 A2982 RMK A01 T00211026  RH  071%=      5-min Rain = 0
KEA1 152314Z 03011KT 02/M03 A2982 RMK A01 T00201026  RH  071%=      5-min Rain = 0
KEA1 152315Z 03011KT 02/M03 A2982 RMK A01 T00201026  RH  072%=      5-min Rain = 0
KEA1 152316Z 03009KT 02/M03 A2982 RMK A01 T00191026  RH  072%=      5-min Rain = 0
KEA1 152317Z 04010KT 02/M03 A2982 RMK A01 T00191027  RH  072%=      5-min Rain = 0
KEA1 152318Z 04014KT 02/M03 A2982 RMK A01 T00181027  RH  072%=      5-min Rain = 0
KEA1 152319Z 04012KT 02/M03 A2983 RMK A01 T00181027  RH  072%=      5-min Rain = 0
KEA1 152320Z 04011KT 02/M03 A2983 RMK A01 T00171028  RH  072%=      5-min Rain = 0
KEA1 152321Z 04012KT 02/M03 A2983 RMK A01 T00161029  RH  072%=      5-min Rain = 0
KEA1 152322Z 04012KT 02/M03 A2983 RMK A01 T00161028  RH  073%=      5-min Rain = 0
KEA1 152323Z 04012KT 02/M03 A2983 RMK A01 T00151028  RH  073%=      5-min Rain = 0
KEA1 152324Z 03011KT 02/M03 A2983 RMK A01 T00151029  RH  073%=      5-min Rain = 0
KEA1 152325Z 03012KT 02/M03 A2983 RMK A01 T00151028  RH  073%=      5-min Rain = 0
KEA1 152326Z 03012KT 02/M03 A2983 RMK A01 T00151028  RH  073%=      5-min Rain = 0
KEA1 152327Z 03011KT 02/M03 A2983 RMK A01 T00151028  RH  073%=      5-min Rain = 0
KEA1 152328Z 03012KT 01/M03 A2983 RMK A01 T00141029  RH  073%=      5-min Rain = 0
KEA1 152329Z 03011KT 01/M03 A2983 RMK A01 T00141029  RH  073%=      5-min Rain = 0
KEA1 152330Z 03011KT 01/M03 A2983 RMK A01 T00131029  RH  073%=      5-min Rain = 0
KEA1 152331Z 03011KT 01/M03 A2983 RMK A01 T00131029  RH  074%=      5-min Rain = 0
KEA1 152332Z 03010KT 01/M03 A2983 RMK A01 T00141028  RH  074%=      5-min Rain = 0
KEA1 152333Z 03010KT 01/M03 A2984 RMK A01 T00131029  RH  074%=      5-min Rain = 0
KEA1 152334Z 03010KT 01/M03 A2983 RMK A01 T00131029  RH  074%=      5-min Rain = 0
KEA1 152335Z 03010KT 01/M03 A2983 RMK A01 T00121029  RH  074%=      5-min Rain = 0
KEA1 152336Z 03010KT 01/M03 A2984 RMK A01 T00121029  RH  074%=      5-min Rain = 0
KEA1 152337Z 03008KT 01/M03 A2984 RMK A01 T00121029  RH  074%=      5-min Rain = 0
KEA1 152338Z 03009KT 01/M03 A2984 RMK A01 T00111030  RH  074%=      5-min Rain = 0
KEA1 152339Z 04009KT 01/M03 A2984 RMK A01 T00111029  RH  074%=      5-min Rain = 0
KEA1 152340Z 03009KT 01/M03 A2984 RMK A01 T00111029  RH  075%=      5-min Rain = 0
KEA1 152341Z 03009KT 01/M03 A2984 RMK A01 T00111029  RH  075%=      5-min Rain = 0
KEA1 152342Z 03009KT 01/M03 A2984 RMK A01 T00101030  RH  075%=      5-min Rain = 0
KEA1 152343Z 03009KT 01/M03 A2984 RMK A01 T00101030  RH  075%=      5-min Rain = 0
KEA1 152344Z 03008KT 01/M03 A2984 RMK A01 T00091030  RH  075%=      5-min Rain = 0
KEA1 152345Z 04009KT 01/M03 A2984 RMK A01 T00091030  RH  075%=      5-min Rain = 0
KEA1 152346Z 03008KT 01/M03 A2984 RMK A01 T00091030  RH  075%=      5-min Rain = 0
KEA1 152347Z 04008KT 01/M03 A2985 RMK A01 T00081031  RH  075%=      5-min Rain = 0
KEA1 152348Z 03008KT 01/M03 A2985 RMK A01 T00081031  RH  075%=      5-min Rain = 0
KEA1 152349Z 04008KT 01/M03 A2985 RMK A01 T00071031  RH  076%=      5-min Rain = 0
KEA1 152350Z 04008KT 01/M03 A2985 RMK A01 T00071031  RH  076%=      5-min Rain = 0
KEA1 152351Z 04009KT 01/M03 A2984 RMK A01 T00061031  RH  076%=      5-min Rain = 0
KEA1 152352Z 03009KT 01/M03 A2984 RMK A01 T00061031  RH  076%=      5-min Rain = 0
KEA1 152353Z 04008KT 01/M03 A2984 RMK A01 T00061031  RH  076%=      5-min Rain = 0
KEA1 152354Z 04008KT 01/M03 A2985 RMK A01 T00061031  RH  076%=      5-min Rain = 0
KEA1 152355Z 04009KT 01/M03 A2985 RMK A01 T00061031  RH  076%=      5-min Rain = 0
KEA1 152356Z 04009KT 01/M03 A2984 RMK A01 T00061031  RH  076%=      5-min Rain = 0
KEA1 152357Z 04009KT 01/M03 A2984 RMK A01 T00051031  RH  077%=      5-min Rain = 0
KEA1 152358Z 04009KT 01/M03 A2984 RMK A01 T00051032  RH  076%=      5-min Rain = 0
KEA1 152359Z 04010KT 00/M03 A2984 RMK A01 T00041032  RH  077%=      5-min Rain = 0
KEA1 160000Z 04009KT 00/M03 A2985 RMK A01 T00041032  RH  077%=      5-min Rain = 0
KEA1 160001Z 04010KT 00/M03 A2985 RMK A01 T00041031  RH  077%=      5-min Rain = 0
KEA1 160002Z 04009KT 01/M03 A2985 RMK A01 T00051031  RH  077%=      5-min Rain = 0
KEA1 160003Z 04009KT 00/M03 A2985 RMK A01 T00041032  RH  077%=      5-min Rain = 0
KEA1 160004Z 04010KT 00/M03 A2984 RMK A01 T00041031  RH  077%=      5-min Rain = 0
KEA1 160005Z 04009KT 00/M03 A2984 RMK A01 T00041031  RH  077%=      5-min Rain = 0
KEA1 160006Z 05009KT 00/M03 A2985 RMK A01 T00041032  RH  077%=      5-min Rain = 0
KEA1 160007Z 05009KT 00/M03 A2985 RMK A01 T00031031  RH  078%=      5-min Rain = 0
KEA1 160008Z 04010KT 00/M03 A2985 RMK A01 T00031031  RH  078%=      5-min Rain = 0
KEA1 160009Z 04009KT 00/M03 A2985 RMK A01 T00031032  RH  078%=      5-min Rain = 0
KEA1 160010Z 04009KT 00/M03 A2985 RMK A01 T00031032  RH  078%=      5-min Rain = 0
KEA1 160011Z 04009KT 00/M03 A2985 RMK A01 T00031032  RH  078%=      5-min Rain = 0
KEA1 160012Z 04009KT 00/M03 A2985 RMK A01 T00021032  RH  078%=      5-min Rain = 0
KEA1 160013Z 04009KT 00/M03 A2985 RMK A01 T00021032  RH  078%=      5-min Rain = 0
KEA1 160014Z 05008KT 00/M03 A2985 RMK A01 T00011032  RH  078%=      5-min Rain = 0
KEA1 160015Z 05009KT 00/M03 A2985 RMK A01 T00011033  RH  078%=      5-min Rain = 0
KEA1 160016Z 05009KT 00/03 A2985 RMK A01 T00000-33  RH  079%=      5-min Rain = 0
KEA1 160017Z 05009KT 00/03 A2985 RMK A01 T00-00-33  RH  079%=      5-min Rain = 0
KEA1 160018Z 05008KT 00/03 A2985 RMK A01 T00000-32  RH  079%=      5-min Rain = 0
KEA1 160019Z 05009KT 00/03 A2985 RMK A01 T00000-32  RH  079%=      5-min Rain = 0
KEA1 160020Z 04008KT 00/03 A2985 RMK A01 T00000-33  RH  079%=      5-min Rain = 0
KEA1 160021Z 04008KT 00/03 A2985 RMK A01 T00-00-33  RH  078%=      5-min Rain = 0
KEA1 160022Z 05008KT M00/M03 A2985 RMK A01 T10011034  RH  079%=      5-min Rain = 0
KEA1 160023Z 05008KT M00/M03 A2985 RMK A01 T10021034  RH  079%=      5-min Rain = 0
KEA1 160024Z 04008KT M00/M03 A2985 RMK A01 T10021034  RH  079%=      5-min Rain = 0
KEA1 160025Z 05008KT M00/M04 A2985 RMK A01 T10031035  RH  079%=      5-min Rain = 0
KEA1 160026Z 05008KT M00/M04 A2985 RMK A01 T10041035  RH  079%=      5-min Rain = 0
KEA1 160027Z 05008KT M00/M04 A2985 RMK A01 T10041035  RH  080%=      5-min Rain = 0
KEA1 160028Z 05008KT M00/M04 A2985 RMK A01 T10041035  RH  080%=      5-min Rain = 0
KEA1 160029Z 05008KT M01/M04 A2985 RMK A01 T10051035  RH  080%=      5-min Rain = 0
KEA1 160030Z 05008KT M01/M04 A2985 RMK A01 T10051035  RH  080%=      5-min Rain = 0
KEA1 160031Z 05008KT M01/M04 A2985 RMK A01 T10061036  RH  080%=      5-min Rain = 0
KEA1 160032Z 05008KT M01/M04 A2985 RMK A01 T10061036  RH  080%=      5-min Rain = 0
KEA1 160033Z 05008KT M01/M04 A2985 RMK A01 T10061036  RH  080%=      5-min Rain = 0
KEA1 160034Z 05008KT M01/M04 A2985 RMK A01 T10071036  RH  081%=      5-min Rain = 0
KEA1 160035Z 05008KT M01/M04 A2985 RMK A01 T10061035  RH  081%=      5-min Rain = 0
KEA1 160036Z 05008KT M01/M04 A2985 RMK A01 T10071036  RH  081%=      5-min Rain = 0
KEA1 160037Z 05008KT M01/M04 A2985 RMK A01 T10081036  RH  081%=      5-min Rain = 0
KEA1 160038Z 05008KT M01/M04 A2985 RMK A01 T10081037  RH  081%=      5-min Rain = 0
KEA1 160039Z 05007KT M01/M04 A2985 RMK A01 T10081037  RH  081%=      5-min Rain = 0
KEA1 160040Z 05007KT M01/M04 A2986 RMK A01 T10081036  RH  081%=      5-min Rain = 0
KEA1 160041Z 05007KT M01/M04 A2986 RMK A01 T10091037  RH  081%=      5-min Rain = 0
KEA1 160042Z 05007KT M01/M04 A2986 RMK A01 T10091037  RH  081%=      5-min Rain = 0
KEA1 160043Z 05007KT M01/M04 A2986 RMK A01 T10091037  RH  081%=      5-min Rain = 0
KEA1 160044Z 05006KT M01/M04 A2986 RMK A01 T10101038  RH  082%=      5-min Rain = 0
KEA1 160045Z 05006KT M01/M04 A2986 RMK A01 T10101037  RH  082%=      5-min Rain = 0
KEA1 160046Z 05006KT M01/M04 A2986 RMK A01 T10111038  RH  082%=      5-min Rain = 0
KEA1 160047Z 05007KT M01/M04 A2986 RMK A01 T10101037  RH  082%=      5-min Rain = 0
KEA1 160048Z 05007KT M01/M04 A2986 RMK A01 T10111038  RH  082%=      5-min Rain = 0
KEA1 160049Z 05007KT M01/M04 A2986 RMK A01 T10111038  RH  082%=      5-min Rain = 0
KEA1 160050Z 05007KT M01/M04 A2986 RMK A01 T10121039  RH  082%=      5-min Rain = 0
KEA1 160051Z 05006KT M01/M04 A2986 RMK A01 T10121039  RH  082%=      5-min Rain = 0
KEA1 160052Z 05006KT M01/M04 A2986 RMK A01 T10131040  RH  082%=      5-min Rain = 0
KEA1 160053Z 05007KT M01/M04 A2986 RMK A01 T10131039  RH  082%=      5-min Rain = 0
KEA1 160054Z 04007KT M01/M04 A2986 RMK A01 T10141040  RH  083%=      5-min Rain = 0
KEA1 160055Z 04007KT M02/M04 A2986 RMK A01 T10151041  RH  082%=      5-min Rain = 0
KEA1 160056Z 04007KT M02/M04 A2986 RMK A01 T10161042  RH  083%=      5-min Rain = 0
KEA1 160057Z 04007KT M02/M04 A2986 RMK A01 T10161042  RH  083%=      5-min Rain = 0
KEA1 160058Z 04007KT M02/M04 A2986 RMK A01 T10171042  RH  083%=      5-min Rain = 0
KEA1 160059Z 04007KT M02/M04 A2986 RMK A01 T10171041  RH  083%=      5-min Rain = 0
KEA1 160100Z 04008KT M02/M04 A2986 RMK A01 T10171041  RH  084%=      5-min Rain = 0
KEA1 160101Z 04008KT M02/M04 A2986 RMK A01 T10171041  RH  084%=      5-min Rain = 0
KEA1 160102Z 04008KT M02/M04 A2986 RMK A01 T10171041  RH  084%=      5-min Rain = 0
KEA1 160103Z 04008KT M02/M04 A2986 RMK A01 T10171041  RH  084%=      5-min Rain = 0
KEA1 160104Z 04009KT M02/M04 A2986 RMK A01 T10171041  RH  084%=      5-min Rain = 0
KEA1 160105Z 04008KT M02/M04 A2986 RMK A01 T10161040  RH  084%=      5-min Rain = 0
KEA1 160106Z 05008KT M02/M04 A2986 RMK A01 T10161040  RH  084%=      5-min Rain = 0
KEA1 160107Z 05007KT M02/M04 A2987 RMK A01 T10161040  RH  084%=      5-min Rain = 0
KEA1 160108Z 05007KT M02/M04 A2987 RMK A01 T10161040  RH  083%=      5-min Rain = 0
KEA1 160109Z 04007KT M02/M04 A2987 RMK A01 T10161040  RH  083%=      5-min Rain = 0
KEA1 160110Z 04008KT M02/M04 A2987 RMK A01 T10161040  RH  084%=      5-min Rain = 0
KEA1 160111Z 04008KT M02/M04 A2987 RMK A01 T10161040  RH  084%=      5-min Rain = 0
KEA1 160112Z 05008KT M02/M04 A2987 RMK A01 T10171041  RH  084%=      5-min Rain = 0
KEA1 160113Z 05008KT M02/M04 A2987 RMK A01 T10171041  RH  084%=      5-min Rain = 0
KEA1 160114Z 05008KT M02/M04 A2987 RMK A01 T10171041  RH  084%=      5-min Rain = 0
KEA1 160115Z 05008KT M02/M04 A2987 RMK A01 T10181042  RH  084%=      5-min Rain = 0
KEA1 160116Z 05008KT M02/M04 A2987 RMK A01 T10181041  RH  084%=      5-min Rain = 0
KEA1 160117Z 05008KT M02/M04 A2987 RMK A01 T10171040  RH  084%=      5-min Rain = 0
KEA1 160118Z 05008KT M02/M04 A2987 RMK A01 T10181041  RH  084%=      5-min Rain = 0
KEA1 160119Z 04008KT M02/M04 A2987 RMK A01 T10181041  RH  084%=      5-min Rain = 0
KEA1 160120Z 04007KT M02/M04 A2987 RMK A01 T10181041  RH  084%=      5-min Rain = 0
KEA1 160121Z 04008KT M02/M04 A2987 RMK A01 T10181041  RH  084%=      5-min Rain = 0
KEA1 160122Z 04008KT M02/M04 A2987 RMK A01 T10191042  RH  084%=      5-min Rain = 0
KEA1 160123Z 04008KT M02/M04 A2987 RMK A01 T10181041  RH  085%=      5-min Rain = 0
KEA1 160124Z 04008KT M02/M04 A2988 RMK A01 T10181040  RH  085%=      5-min Rain = 0
KEA1 160125Z 04008KT M02/M04 A2988 RMK A01 T10171039  RH  085%=      5-min Rain = 0
KEA1 160126Z 04008KT M02/M04 A2988 RMK A01 T10171039  RH  085%=      5-min Rain = 0
KEA1 160127Z 03008KT M02/M04 A2988 RMK A01 T10171040  RH  084%=      5-min Rain = 0
KEA1 160128Z 03008KT M02/M04 A2988 RMK A01 T10161039  RH  084%=      5-min Rain = 0
KEA1 160129Z 03008KT M02/M04 A2988 RMK A01 T10171040  RH  084%=      5-min Rain = 0
KEA1 160130Z 03007KT M02/M04 A2988 RMK A01 T10171040  RH  084%=      5-min Rain = 0
KEA1 160131Z 04007KT M02/M04 A2988 RMK A01 T10181041  RH  084%=      5-min Rain = 0
KEA1 160132Z 04007KT M02/M04 A2988 RMK A01 T10191042  RH  084%=      5-min Rain = 0
KEA1 160133Z 04007KT M02/M04 A2988 RMK A01 T10201043  RH  085%=      5-min Rain = 0
KEA1 160134Z 04008KT M02/M04 A2988 RMK A01 T10211043  RH  085%=      5-min Rain = 0
KEA1 160135Z 04008KT M02/M04 A2988 RMK A01 T10221044  RH  085%=      5-min Rain = 0
KEA1 160136Z 04007KT M02/M04 A2988 RMK A01 T10231044  RH  085%=      5-min Rain = 0
KEA1 160137Z 04007KT M02/M04 A2988 RMK A01 T10231044  RH  086%=      5-min Rain = 0
KEA1 160138Z 04007KT M02/M04 A2988 RMK A01 T10231044  RH  086%=      5-min Rain = 0
KEA1 160139Z 03008KT M02/M04 A2988 RMK A01 T10231044  RH  086%=      5-min Rain = 0
KEA1 160140Z 03008KT M02/M04 A2988 RMK A01 T10231044  RH  086%=      5-min Rain = 0
KEA1 160141Z 03008KT M02/M05 A2988 RMK A01 T10241045  RH  086%=      5-min Rain = 0
KEA1 160142Z 03008KT M02/M05 A2988 RMK A01 T10241045  RH  086%=      5-min Rain = 0
KEA1 160143Z 03008KT M03/M05 A2988 RMK A01 T10261046  RH  086%=      5-min Rain = 0
KEA1 160144Z 03008KT M03/M05 A2988 RMK A01 T10261046  RH  086%=      5-min Rain = 0
KEA1 160145Z 03008KT M03/M05 A2988 RMK A01 T10271046  RH  086%=      5-min Rain = 0
KEA1 160146Z 03008KT M03/M05 A2988 RMK A01 T10271046  RH  087%=      5-min Rain = 0
KEA1 160147Z 03008KT M03/M05 A2988 RMK A01 T10281047  RH  087%=      5-min Rain = 0
KEA1 160148Z 03008KT M03/M05 A2988 RMK A01 T10281046  RH  087%=      5-min Rain = 0
KEA1 160149Z 03008KT M03/M05 A2988 RMK A01 T10271046  RH  087%=      5-min Rain = 0
KEA1 160150Z 04008KT M03/M05 A2988 RMK A01 T10271045  RH  088%=      5-min Rain = 0
KEA1 160151Z 03007KT M03/M05 A2988 RMK A01 T10271045  RH  087%=      5-min Rain = 0
KEA1 160152Z 03007KT M03/M04 A2989 RMK A01 T10261044  RH  087%=      5-min Rain = 0
KEA1 160153Z 04007KT M03/M04 A2989 RMK A01 T10261044  RH  087%=      5-min Rain = 0
KEA1 160154Z 03007KT M03/M04 A2989 RMK A01 T10261044  RH  087%=      5-min Rain = 0
KEA1 160155Z 04007KT M03/M04 A2989 RMK A01 T10261044  RH  087%=      5-min Rain = 0
KEA1 160156Z 04008KT M03/M04 A2988 RMK A01 T10251044  RH  087%=      5-min Rain = 0
KEA1 160157Z 04007KT M03/M04 A2988 RMK A01 T10261044  RH  087%=      5-min Rain = 0
KEA1 160158Z 04007KT M03/M04 A2988 RMK A01 T10251043  RH  087%=      5-min Rain = 0
KEA1 160159Z 04008KT M03/M04 A2988 RMK A01 T10251043  RH  088%=      5-min Rain = 0
KEA1 160200Z 04007KT M02/M04 A2988 RMK A01 T10241042  RH  087%=      5-min Rain = 0
KEA1 160201Z 04007KT M03/M04 A2988 RMK A01 T10251043  RH  087%=      5-min Rain = 0
KEA1 160202Z 03007KT M03/M04 A2988 RMK A01 T10251043  RH  087%=      5-min Rain = 0
KEA1 160203Z 03007KT M02/M04 A2988 RMK A01 T10241042  RH  087%=      5-min Rain = 0
KEA1 160204Z 03007KT M03/M04 A2988 RMK A01 T10251043  RH  087%=      5-min Rain = 0
KEA1 160205Z 03007KT M03/M04 A2989 RMK A01 T10251043  RH  087%=      5-min Rain = 0
KEA1 160206Z 03007KT M03/M04 A2989 RMK A01 T10251043  RH  087%=      5-min Rain = 0
KEA1 160207Z 02007KT M03/M04 A2989 RMK A01 T10251043  RH  088%=      5-min Rain = 0
KEA1 160208Z 03008KT M03/M04 A2989 RMK A01 T10261043  RH  088%=      5-min Rain = 0
KEA1 160209Z 03008KT M03/M04 A2989 RMK A01 T10261044  RH  088%=      5-min Rain = 0
KEA1 160210Z 03008KT M03/M05 A2989 RMK A01 T10271045  RH  088%=      5-min Rain = 0
KEA1 160211Z 03008KT M03/M05 A2989 RMK A01 T10281045  RH  088%=      5-min Rain = 0
KEA1 160212Z 03008KT M03/M04 A2988 RMK A01 T10281044  RH  088%=      5-min Rain = 0
KEA1 160213Z 03008KT M03/M04 A2988 RMK A01 T10281044  RH  089%=      5-min Rain = 0
KEA1 160214Z 03007KT M03/M05 A2989 RMK A01 T10291045  RH  089%=      5-min Rain = 0
KEA1 160215Z 03008KT M03/M05 A2989 RMK A01 T10291045  RH  089%=      5-min Rain = 0
KEA1 160216Z 03007KT M03/M05 A2989 RMK A01 T10291045  RH  089%=      5-min Rain = 0
KEA1 160217Z 02007KT M03/M05 A2989 RMK A01 T10291045  RH  089%=      5-min Rain = 0
KEA1 160218Z 02007KT M03/M05 A2989 RMK A01 T10291045  RH  089%=      5-min Rain = 0
KEA1 160219Z 03007KT M03/M05 A2989 RMK A01 T10291045  RH  089%=      5-min Rain = 0
KEA1 160220Z 03007KT M03/M05 A2989 RMK A01 T10301045  RH  089%=      5-min Rain = 0
KEA1 160221Z 03007KT M03/M05 A2989 RMK A01 T10301045  RH  089%=      5-min Rain = 0
KEA1 160222Z 03007KT M03/M05 A2989 RMK A01 T10301045  RH  089%=      5-min Rain = 0
KEA1 160223Z 03007KT M03/M05 A2989 RMK A01 T10301046  RH  089%=      5-min Rain = 0
KEA1 160224Z 03007KT M03/M05 A2989 RMK A01 T10301046  RH  089%=      5-min Rain = 0
KEA1 160225Z 03008KT M03/M05 A2989 RMK A01 T10301045  RH  089%=      5-min Rain = 0
KEA1 160226Z 04008KT M03/M05 A2989 RMK A01 T10301046  RH  089%=      5-min Rain = 0
KEA1 160227Z 03007KT M03/M05 A2989 RMK A01 T10301046  RH  089%=      5-min Rain = 0
KEA1 160228Z 03007KT M03/M05 A2989 RMK A01 T10301046  RH  089%=      5-min Rain = 0
KEA1 160229Z 03007KT M03/M05 A2989 RMK A01 T10301045  RH  089%=      5-min Rain = 0
KEA1 160230Z 03007KT M03/M05 A2989 RMK A01 T10301045  RH  089%=      5-min Rain = 0
KEA1 160231Z 03006KT M03/M05 A2989 RMK A01 T10301045  RH  090%=      5-min Rain = 0
KEA1 160232Z 03007KT M03/M04 A2989 RMK A01 T10301044  RH  090%=      5-min Rain = 0
KEA1 160233Z 03007KT M03/M04 A2989 RMK A01 T10291042  RH  090%=      5-min Rain = 0
KEA1 160234Z 03007KT M03/M04 A2989 RMK A01 T10271041  RH  091%=      5-min Rain = 0
KEA1 160235Z 02008KT M03/M04 A2989 RMK A01 T10251039  RH  091%=      5-min Rain = 0
KEA1 160236Z 03007KT M02/M04 A2989 RMK A01 T10241037  RH  091%=      5-min Rain = 0
KEA1 160237Z 03008KT M02/M04 A2989 RMK A01 T10211035  RH  091%=      5-min Rain = 0
KEA1 160238Z 03008KT M02/M03 A2989 RMK A01 T10191032  RH  091%=      5-min Rain = 0
KEA1 160239Z 03009KT M02/M03 A2989 RMK A01 T10171030  RH  090%=      5-min Rain = 0
KEA1 160240Z 03010KT M01/M03 A2989 RMK A01 T10141029  RH  089%=      5-min Rain = 0
KEA1 160241Z 03012KT M01/M03 A2989 RMK A01 T10111028  RH  088%=      5-min Rain = 0
KEA1 160242Z 03011KT M01/M03 A2989 RMK A01 T10091028  RH  087%=      5-min Rain = 0
KEA1 160243Z 03011KT M01/M03 A2989 RMK A01 T10081029  RH  086%=      5-min Rain = 0
KEA1 160244Z 03010KT M01/M03 A2989 RMK A01 T10071029  RH  085%=      5-min Rain = 0
KEA1 160245Z 03009KT M01/M03 A2989 RMK A01 T10071029  RH  085%=      5-min Rain = 0
KEA1 160246Z 04009KT M01/M03 A2989 RMK A01 T10061029  RH  085%=      5-min Rain = 0
KEA1 160247Z 04011KT M01/M03 A2989 RMK A01 T10061029  RH  085%=      5-min Rain = 0
KEA1 160248Z 03013KT M01/M03 A2989 RMK A01 T10061029  RH  084%=      5-min Rain = 0
KEA1 160249Z 04011KT M01/M03 A2989 RMK A01 T10051030  RH  083%=      5-min Rain = 0
KEA1 160250Z 03010KT M01/M03 A299 RMK A01 T10051030  RH  083%=      5-min Rain = 0
KEA1 160251Z 04010KT M01/M03 A299 RMK A01 T10051030  RH  083%=      5-min Rain = 0
KEA1 160252Z 04012KT M01/M03 A299 RMK A01 T10051030  RH  083%=      5-min Rain = 0
KEA1 160253Z 03011KT M01/M03 A299 RMK A01 T10051030  RH  083%=      5-min Rain = 0
KEA1 160254Z 04011KT M01/M03 A299 RMK A01 T10051030  RH  083%=      5-min Rain = 0
KEA1 160255Z 03011KT M01/M03 A299 RMK A01 T10051030  RH  083%=      5-min Rain = 0
KEA1 160256Z 03011KT M01/M03 A299 RMK A01 T10051030  RH  083%=      5-min Rain = 0
KEA1 160257Z 03011KT M01/M03 A299 RMK A01 T10051030  RH  083%=      5-min Rain = 0
KEA1 160258Z 03011KT M01/M03 A299 RMK A01 T10051030  RH  083%=      5-min Rain = 0
KEA1 160259Z 04011KT M01/M03 A299 RMK A01 T10051030  RH  083%=      5-min Rain = 0
KEA1 160300Z 03013KT M01/M03 A299 RMK A01 T10051031  RH  083%=      5-min Rain = 0
KEA1 160301Z 04013KT M01/M03 A299 RMK A01 T10051032  RH  082%=      5-min Rain = 0
KEA1 160302Z 04012KT M01/M03 A299 RMK A01 T10061032  RH  082%=      5-min Rain = 0
KEA1 160303Z 04011KT M01/M03 A299 RMK A01 T10061032  RH  083%=      5-min Rain = 0
KEA1 160304Z 04012KT M01/M03 A299 RMK A01 T10061032  RH  083%=      5-min Rain = 0
KEA1 160305Z 04013KT M01/M03 A299 RMK A01 T10061032  RH  083%=      5-min Rain = 0
KEA1 160306Z 05013KT M01/M03 A299 RMK A01 T10061032  RH  083%=      5-min Rain = 0
KEA1 160307Z 04013KT M01/M03 A299 RMK A01 T10061033  RH  083%=      5-min Rain = 0
KEA1 160308Z 04013KT M01/M03 A299 RMK A01 T10061033  RH  083%=      5-min Rain = 0
KEA1 160309Z 04010KT M01/M03 A299 RMK A01 T10061033  RH  083%=      5-min Rain = 0
KEA1 160310Z 04011KT M01/M03 A299 RMK A01 T10061032  RH  083%=      5-min Rain = 0
KEA1 160311Z 04013KT M01/M03 A299 RMK A01 T10061032  RH  083%=      5-min Rain = 0
KEA1 160312Z 04014KT M01/M03 A2991 RMK A01 T10061032  RH  082%=      5-min Rain = 0
KEA1 160313Z 04015KT M01/M03 A299 RMK A01 T10071033  RH  082%=      5-min Rain = 0
KEA1 160314Z 04013KT M01/M03 A2991 RMK A01 T10071033  RH  082%=      5-min Rain = 0
KEA1 160315Z 05012KT M01/M03 A2991 RMK A01 T10071033  RH  082%=      5-min Rain = 0
KEA1 160316Z 04011KT M01/M03 A2991 RMK A01 T10071033  RH  082%=      5-min Rain = 0
KEA1 160317Z 04012KT M01/M03 A2991 RMK A01 T10071033  RH  083%=      5-min Rain = 0
KEA1 160318Z 05012KT M01/M03 A2991 RMK A01 T10071033  RH  082%=      5-min Rain = 0
KEA1 160319Z 05011KT M01/M03 A2991 RMK A01 T10071033  RH  082%=      5-min Rain = 0
KEA1 160320Z 04011KT M01/M03 A2991 RMK A01 T10071033  RH  083%=      5-min Rain = 0
KEA1 160321Z 04010KT M01/M03 A2991 RMK A01 T10071033  RH  083%=      5-min Rain = 0
KEA1 160322Z 04010KT M01/M03 A2991 RMK A01 T10071033  RH  083%=      5-min Rain = 0
KEA1 160323Z 04013KT M01/M03 A2991 RMK A01 T10071033  RH  082%=      5-min Rain = 0
KEA1 160324Z 04013KT M01/M03 A2991 RMK A01 T10071033  RH  082%=      5-min Rain = 0
KEA1 160325Z 04013KT M01/M03 A2991 RMK A01 T10071033  RH  082%=      5-min Rain = 0
KEA1 160326Z 04011KT M01/M03 A2991 RMK A01 T10071033  RH  082%=      5-min Rain = 0
KEA1 160327Z 04012KT M01/M03 A2991 RMK A01 T10071033  RH  082%=      5-min Rain = 0
KEA1 160328Z 05013KT M01/M03 A2991 RMK A01 T10071033  RH  082%=      5-min Rain = 0
KEA1 160329Z 05011KT M01/M03 A2991 RMK A01 T10071033  RH  082%=      5-min Rain = 0
KEA1 160330Z 05011KT M01/M03 A2991 RMK A01 T10071033  RH  082%=      5-min Rain = 0
KEA1 160331Z 04012KT M01/M03 A2991 RMK A01 T10061033  RH  082%=      5-min Rain = 0
KEA1 160332Z 04013KT M01/M03 A2991 RMK A01 T10061033  RH  082%=      5-min Rain = 0
KEA1 160333Z 04012KT M01/M03 A2991 RMK A01 T10061033  RH  082%=      5-min Rain = 0
KEA1 160334Z 04012KT M01/M03 A2991 RMK A01 T10061033  RH  082%=      5-min Rain = 0
KEA1 160335Z 05013KT M01/M03 A2991 RMK A01 T10061033  RH  082%=      5-min Rain = 0
KEA1 160336Z 04012KT M01/M03 A2991 RMK A01 T10061033  RH  082%=      5-min Rain = 0
KEA1 160337Z 04012KT M01/M03 A2991 RMK A01 T10071033  RH  082%=      5-min Rain = 0
KEA1 160338Z 04011KT M01/M03 A2991 RMK A01 T10061033  RH  082%=      5-min Rain = 0
KEA1 160339Z 04011KT M01/M03 A2991 RMK A01 T10071033  RH  082%=      5-min Rain = 0
KEA1 160340Z 04009KT M01/M03 A2991 RMK A01 T10061033  RH  082%=      5-min Rain = 0
KEA1 160341Z 04011KT M01/M03 A2991 RMK A01 T10061033  RH  082%=      5-min Rain = 0
KEA1 160342Z 04011KT M01/M03 A2991 RMK A01 T10061033  RH  082%=      5-min Rain = 0
KEA1 160343Z 04012KT M01/M03 A2991 RMK A01 T10061033  RH  082%=      5-min Rain = 0
KEA1 160344Z 03011KT M01/M03 A2991 RMK A01 T10061033  RH  082%=      5-min Rain = 0
KEA1 160345Z 03011KT M01/M03 A2992 RMK A01 T10061033  RH  082%=      5-min Rain = 0
KEA1 160346Z 04010KT M01/M03 A2992 RMK A01 T10061033  RH  082%=      5-min Rain = 0
KEA1 160347Z 04011KT M01/M03 A2992 RMK A01 T10061033  RH  082%=      5-min Rain = 0
KEA1 160348Z 04011KT M01/M03 A2992 RMK A01 T10061033  RH  082%=      5-min Rain = 0
KEA1 160349Z 03012KT M01/M03 A2991 RMK A01 T10061033  RH  082%=      5-min Rain = 0
KEA1 160350Z 03011KT M01/M03 A2991 RMK A01 T10061033  RH  082%=      5-min Rain = 0
KEA1 160351Z 04008KT M01/M03 A2992 RMK A01 T10071033  RH  082%=      5-min Rain = 0
KEA1 160352Z 04009KT M01/M03 A2992 RMK A01 T10071033  RH  082%=      5-min Rain = 0
KEA1 160353Z 04009KT M01/M03 A2992 RMK A01 T10071033  RH  082%=      5-min Rain = 0
KEA1 160354Z 03008KT M01/M03 A2992 RMK A01 T10071033  RH  082%=      5-min Rain = 0
KEA1 160355Z 03009KT M01/M03 A2992 RMK A01 T10071033  RH  082%=      5-min Rain = 0
KEA1 160356Z 04006KT M01/M03 A2992 RMK A01 T10071033  RH  082%=      5-min Rain = 0
KEA1 160357Z 04009KT M01/M03 A2992 RMK A01 T10061032  RH  083%=      5-min Rain = 0
KEA1 160358Z 04009KT M01/M03 A2992 RMK A01 T10071033  RH  082%=      5-min Rain = 0
KEA1 160359Z 05009KT M01/M03 A2992 RMK A01 T10071033  RH  082%=      5-min Rain = 0
KEA1 160400Z 05008KT M01/M03 A2992 RMK A01 T10071033  RH  082%=      5-min Rain = 0
KEA1 160401Z 04007KT M01/M03 A2992 RMK A01 T10071033  RH  083%=      5-min Rain = 0
KEA1 160402Z 05007KT M01/M03 A2992 RMK A01 T10071033  RH  083%=      5-min Rain = 0
KEA1 160403Z 06011KT M01/M03 A2992 RMK A01 T10071032  RH  083%=      5-min Rain = 0
KEA1 160404Z 05010KT M01/M03 A2992 RMK A01 T10071033  RH  083%=      5-min Rain = 0
KEA1 160405Z 05009KT M01/M03 A2992 RMK A01 T10071033  RH  082%=      5-min Rain = 0
KEA1 160406Z 05009KT M01/M03 A2992 RMK A01 T10071033  RH  083%=      5-min Rain = 0
KEA1 160407Z 05010KT M01/M03 A2992 RMK A01 T10061032  RH  083%=      5-min Rain = 0
KEA1 160408Z 05010KT M01/M03 A2992 RMK A01 T10061033  RH  082%=      5-min Rain = 0
KEA1 160409Z 04008KT M01/M03 A2992 RMK A01 T10061033  RH  082%=      5-min Rain = 0
KEA1 160410Z 03009KT M01/M03 A2992 RMK A01 T10061032  RH  083%=      5-min Rain = 0
KEA1 160411Z 04009KT M01/M03 A2992 RMK A01 T10061032  RH  083%=      5-min Rain = 0
KEA1 160412Z 04008KT M01/M03 A2992 RMK A01 T10071033  RH  083%=      5-min Rain = 0
KEA1 160413Z 03009KT M01/M03 A2992 RMK A01 T10061032  RH  083%=      5-min Rain = 0
KEA1 160414Z 03010KT M01/M03 A2992 RMK A01 T10061033  RH  083%=      5-min Rain = 0
KEA1 160415Z 04011KT M01/M03 A2992 RMK A01 T10061033  RH  083%=      5-min Rain = 0
KEA1 160416Z 04009KT M01/M03 A2992 RMK A01 T10061032  RH  083%=      5-min Rain = 0
KEA1 160417Z 04011KT M01/M03 A2992 RMK A01 T10061032  RH  083%=      5-min Rain = 0
KEA1 160418Z 04011KT M01/M03 A2992 RMK A01 T10061032  RH  083%=      5-min Rain = 0
KEA1 160419Z 03011KT M01/M03 A2992 RMK A01 T10071033  RH  082%=      5-min Rain = 0
KEA1 160420Z 03011KT M01/M03 A2992 RMK A01 T10071033  RH  082%=      5-min Rain = 0
KEA1 160421Z 04011KT M01/M03 A2992 RMK A01 T10071033  RH  083%=      5-min Rain = 0
KEA1 160422Z 04009KT M01/M03 A2992 RMK A01 T10071033  RH  083%=      5-min Rain = 0
KEA1 160423Z 05007KT M01/M03 A2993 RMK A01 T10071033  RH  083%=      5-min Rain = 0
KEA1 160424Z 06008KT M01/M03 A2993 RMK A01 T10071033  RH  083%=      5-min Rain = 0
KEA1 160425Z 06009KT M01/M03 A2992 RMK A01 T10071032  RH  083%=      5-min Rain = 0
KEA1 160426Z 06008KT M01/M03 A2993 RMK A01 T10071033  RH  083%=      5-min Rain = 0
KEA1 160427Z 06008KT M01/M03 A2993 RMK A01 T10071033  RH  083%=      5-min Rain = 0
KEA1 160428Z 05008KT M01/M03 A2993 RMK A01 T10071033  RH  083%=      5-min Rain = 0
KEA1 160429Z 05008KT M01/M03 A2993 RMK A01 T10071033  RH  083%=      5-min Rain = 0
KEA1 160430Z 05008KT M01/M03 A2993 RMK A01 T10071033  RH  083%=      5-min Rain = 0
KEA1 160431Z 05007KT M01/M03 A2992 RMK A01 T10071033  RH  083%=      5-min Rain = 0
KEA1 160432Z 05007KT M01/M03 A2992 RMK A01 T10071033  RH  083%=      5-min Rain = 0
KEA1 160433Z 05008KT M01/M03 A2992 RMK A01 T10071033  RH  083%=      5-min Rain = 0
KEA1 160434Z 06008KT M01/M03 A2992 RMK A01 T10071033  RH  083%=      5-min Rain = 0
KEA1 160435Z 05008KT M01/M03 A2992 RMK A01 T10071032  RH  083%=      5-min Rain = 0
KEA1 160436Z 06011KT M01/M03 A2992 RMK A01 T10071032  RH  083%=      5-min Rain = 0
KEA1 160437Z 05009KT M01/M03 A2992 RMK A01 T10071032  RH  083%=      5-min Rain = 0
KEA1 160438Z 04009KT M01/M03 A2993 RMK A01 T10061032  RH  083%=      5-min Rain = 0
KEA1 160439Z 05010KT M01/M03 A2993 RMK A01 T10071032  RH  083%=      5-min Rain = 0
KEA1 160440Z 04009KT M01/M03 A2992 RMK A01 T10071032  RH  083%=      5-min Rain = 0
KEA1 160441Z 05009KT M01/M03 A2992 RMK A01 T10071032  RH  083%=      5-min Rain = 0
KEA1 160442Z 05008KT M01/M03 A2992 RMK A01 T10071032  RH  083%=      5-min Rain = 0
KEA1 160443Z 05008KT M01/M03 A2992 RMK A01 T10071032  RH  083%=      5-min Rain = 0
KEA1 160444Z 05008KT M01/M03 A2992 RMK A01 T10071032  RH  083%=      5-min Rain = 0
KEA1 160445Z 06008KT M01/M03 A2992 RMK A01 T10071032  RH  083%=      5-min Rain = 0
KEA1 160446Z 06009KT M01/M03 A2992 RMK A01 T10071032  RH  083%=      5-min Rain = 0
KEA1 160447Z 06009KT M01/M03 A2992 RMK A01 T10071032  RH  083%=      5-min Rain = 0
KEA1 160448Z 05009KT M01/M03 A2992 RMK A01 T10071032  RH  083%=      5-min Rain = 0
KEA1 160449Z 05008KT M01/M03 A2992 RMK A01 T10071032  RH  083%=      5-min Rain = 0
KEA1 160450Z 05008KT M01/M03 A2992 RMK A01 T10071032  RH  083%=      5-min Rain = 0
KEA1 160451Z 05008KT M01/M03 A2992 RMK A01 T10071032  RH  083%=      5-min Rain = 0
KEA1 160452Z 05007KT M01/M03 A2992 RMK A01 T10071032  RH  083%=      5-min Rain = 0
KEA1 160453Z 05009KT M01/M03 A2992 RMK A01 T10071032  RH  083%=      5-min Rain = 0
KEA1 160454Z 05009KT M01/M03 A2992 RMK A01 T10071032  RH  083%=      5-min Rain = 0
KEA1 160455Z 04009KT M01/M03 A2992 RMK A01 T10071032  RH  083%=      5-min Rain = 0
KEA1 160456Z 05007KT M01/M03 A2992 RMK A01 T10071032  RH  083%=      5-min Rain = 0
KEA1 160457Z 05007KT M01/M03 A2993 RMK A01 T10061032  RH  083%=      5-min Rain = 0
KEA1 160458Z 04007KT M01/M03 A2993 RMK A01 T10061032  RH  083%=      5-min Rain = 0
KEA1 160459Z 03008KT M01/M03 A2993 RMK A01 T10061031  RH  083%=      5-min Rain = 0
KEA1 160500Z 03009KT M01/M03 A2993 RMK A01 T10061031  RH  083%=      5-min Rain = 0
KEA1 160501Z 03008KT M01/M03 A2992 RMK A01 T10061031  RH  083%=      5-min Rain = 0
KEA1 160502Z 04008KT M01/M03 A2993 RMK A01 T10061031  RH  083%=      5-min Rain = 0
KEA1 160503Z 03008KT M01/M03 A2993 RMK A01 T10061031  RH  084%=      5-min Rain = 0
KEA1 160504Z 03009KT M01/M03 A2993 RMK A01 T10061031  RH  083%=      5-min Rain = 0
KEA1 160505Z 03010KT M01/M03 A2993 RMK A01 T10061031  RH  083%=      5-min Rain = 0
KEA1 160506Z 03011KT M01/M03 A2993 RMK A01 T10061031  RH  084%=      5-min Rain = 0
KEA1 160507Z 04009KT M01/M03 A2993 RMK A01 T10061031  RH  084%=      5-min Rain = 0
KEA1 160508Z 04009KT M01/M03 A2993 RMK A01 T10061031  RH  084%=      5-min Rain = 0
KEA1 160509Z 04008KT M01/M03 A2993 RMK A01 T10061031  RH  084%=      5-min Rain = 0
KEA1 160510Z 04007KT M01/M03 A2993 RMK A01 T10061030  RH  084%=      5-min Rain = 0
KEA1 160511Z 03010KT M01/M03 A2993 RMK A01 T10061031  RH  084%=      5-min Rain = 0
KEA1 160512Z 03007KT M01/M03 A2993 RMK A01 T10061031  RH  084%=      5-min Rain = 0
KEA1 160513Z 03008KT M01/M03 A2993 RMK A01 T10061031  RH  084%=      5-min Rain = 0
KEA1 160514Z 03007KT M01/M03 A2993 RMK A01 T10061031  RH  084%=      5-min Rain = 0
KEA1 160515Z 04007KT M01/M03 A2993 RMK A01 T10061031  RH  084%=      5-min Rain = 0
KEA1 160516Z 05009KT M01/M03 A2993 RMK A01 T10061031  RH  084%=      5-min Rain = 0
KEA1 160517Z 05010KT M01/M03 A2993 RMK A01 T10061031  RH  084%=      5-min Rain = 0
KEA1 160518Z 05010KT M01/M03 A2993 RMK A01 T10071031  RH  084%=      5-min Rain = 0
KEA1 160519Z 05009KT M01/M03 A2993 RMK A01 T10061031  RH  084%=      5-min Rain = 0
KEA1 160520Z 04009KT M01/M03 A2993 RMK A01 T10071031  RH  084%=      5-min Rain = 0
KEA1 160521Z 04009KT M01/M03 A2993 RMK A01 T10071031  RH  084%=      5-min Rain = 0
KEA1 160522Z 05009KT M01/M03 A2993 RMK A01 T10071031  RH  084%=      5-min Rain = 0
KEA1 160523Z 04008KT M01/M03 A2993 RMK A01 T10071031  RH  084%=      5-min Rain = 0
KEA1 160524Z 04009KT M01/M03 A2993 RMK A01 T10071031  RH  084%=      5-min Rain = 0
KEA1 160525Z 04009KT M01/M03 A2993 RMK A01 T10071031  RH  084%=      5-min Rain = 0
KEA1 160526Z 04008KT M01/M03 A2993 RMK A01 T10071032  RH  084%=      5-min Rain = 0
KEA1 160527Z 05009KT M01/M03 A2993 RMK A01 T10071031  RH  084%=      5-min Rain = 0
KEA1 160528Z 05010KT M01/M03 A2993 RMK A01 T10071031  RH  084%=      5-min Rain = 0
KEA1 160529Z 05008KT M01/M03 A2993 RMK A01 T10081032  RH  084%=      5-min Rain = 0
KEA1 160530Z 05009KT M01/M03 A2994 RMK A01 T10081032  RH  084%=      5-min Rain = 0
KEA1 160531Z 05009KT M01/M03 A2993 RMK A01 T10071031  RH  084%=      5-min Rain = 0
KEA1 160532Z 05009KT M01/M03 A2993 RMK A01 T10081032  RH  084%=      5-min Rain = 0
KEA1 160533Z 05008KT M01/M03 A2993 RMK A01 T10081032  RH  084%=      5-min Rain = 0
KEA1 160534Z 05009KT M01/M03 A2993 RMK A01 T10081032  RH  084%=      5-min Rain = 0
KEA1 160535Z 06008KT M01/M03 A2993 RMK A01 T10081032  RH  084%=      5-min Rain = 0
KEA1 160536Z 05010KT M01/M03 A2993 RMK A01 T10081031  RH  084%=      5-min Rain = 0
KEA1 160537Z 04011KT M01/M03 A2993 RMK A01 T10081031  RH  084%=      5-min Rain = 0
KEA1 160538Z 04010KT M01/M03 A2993 RMK A01 T10081031  RH  084%=      5-min Rain = 0
KEA1 160539Z 04009KT M01/M03 A2993 RMK A01 T10081032  RH  084%=      5-min Rain = 0
KEA1 160540Z 04008KT M01/M03 A2993 RMK A01 T10081031  RH  084%=      5-min Rain = 0
KEA1 160541Z 04008KT M01/M03 A2994 RMK A01 T10081031  RH  084%=      5-min Rain = 0
KEA1 160542Z 04008KT M01/M03 A2994 RMK A01 T10081031  RH  084%=      5-min Rain = 0
KEA1 160543Z 04007KT M01/M03 A2994 RMK A01 T10081031  RH  084%=      5-min Rain = 0
KEA1 160544Z 03007KT M01/M03 A2994 RMK A01 T10081031  RH  084%=      5-min Rain = 0
KEA1 160545Z 03008KT M01/M03 A2994 RMK A01 T10081031  RH  084%=      5-min Rain = 0
KEA1 160546Z 03011KT M01/M03 A2994 RMK A01 T10081031  RH  084%=      5-min Rain = 0
KEA1 160547Z 04010KT M01/M03 A2994 RMK A01 T10081031  RH  084%=      5-min Rain = 0
KEA1 160548Z 04009KT M01/M03 A2994 RMK A01 T10081030  RH  085%=      5-min Rain = 0
KEA1 160549Z 04009KT M01/M03 A2994 RMK A01 T10081031  RH  085%=      5-min Rain = 0
KEA1 160550Z 03008KT M01/M03 A2994 RMK A01 T10081031  RH  085%=      5-min Rain = 0
KEA1 160551Z 03009KT M01/M03 A2994 RMK A01 T10081031  RH  085%=      5-min Rain = 0
KEA1 160552Z 03008KT M01/M03 A2994 RMK A01 T10081031  RH  085%=      5-min Rain = 0
KEA1 160553Z 03011KT M01/M03 A2994 RMK A01 T10081031  RH  085%=      5-min Rain = 0
KEA1 160554Z 03010KT M01/M03 A2994 RMK A01 T10081031  RH  085%=      5-min Rain = 0
KEA1 160555Z 03008KT M01/M03 A2994 RMK A01 T10081031  RH  085%=      5-min Rain = 0
KEA1 160556Z 03009KT M01/M03 A2994 RMK A01 T10081031  RH  085%=      5-min Rain = 0
KEA1 160557Z 03009KT M01/M03 A2994 RMK A01 T10081031  RH  085%=      5-min Rain = 0
KEA1 160558Z 03008KT M01/M03 A2994 RMK A01 T10081031  RH  085%=      5-min Rain = 0
KEA1 160559Z 04008KT M01/M03 A2994 RMK A01 T10081031  RH  085%=      5-min Rain = 0

Page generated in 0.0773 seconds.